<?xml version="1.0" encoding="UTF-8" standalone="no" ?>
<gpx xmlns="http://www.topografix.com/GPX/1/1" xmlns:xsi="http://www.w3.org/2001/XMLSchema-instance" xsi:schemaLocation="http://www.topografix.com/GPX/1/1 http://www.topografix.com/GPX/1/1/gpx.xsd" version="1.1" creator="VisuGPX - https://www.visugpx.com">
  <metadata>
    <name>Les cloches de Barles</name>
  </metadata>
  <trk>
    <name><![CDATA[cloches de barles]]></name>
    <extensions>
      <line xmlns="http://www.topografix.com/GPX/gpx_style/0/2">
        <color>0000FF</color>
        <width>4</width>
      </line>
    </extensions>
    <trkseg>
      <trkpt lat="44.25762" lon="6.25131">
        <ele>1232.07</ele>
        <time>2016-02-15T10:36:22Z</time>
      </trkpt>
      <trkpt lat="44.25763" lon="6.25131">
        <ele>1232.07</ele>
        <time>2016-02-15T10:36:23Z</time>
      </trkpt>
      <trkpt lat="44.25757" lon="6.25126">
        <ele>1232.55</ele>
        <time>2016-02-15T10:36:42Z</time>
      </trkpt>
      <trkpt lat="44.25755" lon="6.25121">
        <ele>1233.51</ele>
        <time>2016-02-15T10:36:47Z</time>
      </trkpt>
      <trkpt lat="44.25748" lon="6.25105">
        <ele>1235.91</ele>
        <time>2016-02-15T10:37:02Z</time>
      </trkpt>
      <trkpt lat="44.25744" lon="6.25091">
        <ele>1237.83</ele>
        <time>2016-02-15T10:37:19Z</time>
      </trkpt>
      <trkpt lat="44.25742" lon="6.2508">
        <ele>1238.8</ele>
        <time>2016-02-15T10:37:34Z</time>
      </trkpt>
      <trkpt lat="44.2574" lon="6.2507">
        <ele>1241.68</ele>
        <time>2016-02-15T10:37:49Z</time>
      </trkpt>
      <trkpt lat="44.25735" lon="6.25057">
        <ele>1243.12</ele>
        <time>2016-02-15T10:38:05Z</time>
      </trkpt>
      <trkpt lat="44.25727" lon="6.25044">
        <ele>1245.04</ele>
        <time>2016-02-15T10:38:24Z</time>
      </trkpt>
      <trkpt lat="44.25722" lon="6.25035">
        <ele>1246.97</ele>
        <time>2016-02-15T10:38:40Z</time>
      </trkpt>
      <trkpt lat="44.25715" lon="6.25029">
        <ele>1248.41</ele>
        <time>2016-02-15T10:38:57Z</time>
      </trkpt>
      <trkpt lat="44.25707" lon="6.25019">
        <ele>1250.81</ele>
        <time>2016-02-15T10:39:15Z</time>
      </trkpt>
      <trkpt lat="44.25701" lon="6.25011">
        <ele>1252.25</ele>
        <time>2016-02-15T10:39:29Z</time>
      </trkpt>
      <trkpt lat="44.25689" lon="6.25005">
        <ele>1254.66</ele>
        <time>2016-02-15T10:39:45Z</time>
      </trkpt>
      <trkpt lat="44.25678" lon="6.25005">
        <ele>1256.58</ele>
        <time>2016-02-15T10:40:00Z</time>
      </trkpt>
      <trkpt lat="44.25669" lon="6.25002">
        <ele>1257.54</ele>
        <time>2016-02-15T10:40:14Z</time>
      </trkpt>
      <trkpt lat="44.25658" lon="6.25009">
        <ele>1259.46</ele>
        <time>2016-02-15T10:40:29Z</time>
      </trkpt>
      <trkpt lat="44.25649" lon="6.25016">
        <ele>1260.91</ele>
        <time>2016-02-15T10:40:46Z</time>
      </trkpt>
      <trkpt lat="44.25639" lon="6.25017">
        <ele>1261.87</ele>
        <time>2016-02-15T10:41:03Z</time>
      </trkpt>
      <trkpt lat="44.25631" lon="6.25013">
        <ele>1262.83</ele>
        <time>2016-02-15T10:41:18Z</time>
      </trkpt>
      <trkpt lat="44.25626" lon="6.25008">
        <ele>1264.27</ele>
        <time>2016-02-15T10:41:33Z</time>
      </trkpt>
      <trkpt lat="44.25619" lon="6.25001">
        <ele>1266.19</ele>
        <time>2016-02-15T10:41:49Z</time>
      </trkpt>
      <trkpt lat="44.25612" lon="6.24993">
        <ele>1268.6</ele>
        <time>2016-02-15T10:42:04Z</time>
      </trkpt>
      <trkpt lat="44.25606" lon="6.24984">
        <ele>1270.04</ele>
        <time>2016-02-15T10:42:20Z</time>
      </trkpt>
      <trkpt lat="44.25598" lon="6.24974">
        <ele>1271.96</ele>
        <time>2016-02-15T10:42:39Z</time>
      </trkpt>
      <trkpt lat="44.25591" lon="6.24964">
        <ele>1273.4</ele>
        <time>2016-02-15T10:42:57Z</time>
      </trkpt>
      <trkpt lat="44.25583" lon="6.24954">
        <ele>1274.85</ele>
        <time>2016-02-15T10:43:13Z</time>
      </trkpt>
      <trkpt lat="44.25577" lon="6.24943">
        <ele>1275.81</ele>
        <time>2016-02-15T10:43:31Z</time>
      </trkpt>
      <trkpt lat="44.2557" lon="6.24936">
        <ele>1276.77</ele>
        <time>2016-02-15T10:43:47Z</time>
      </trkpt>
      <trkpt lat="44.25564" lon="6.24924">
        <ele>1278.21</ele>
        <time>2016-02-15T10:44:05Z</time>
      </trkpt>
      <trkpt lat="44.25561" lon="6.24914">
        <ele>1280.13</ele>
        <time>2016-02-15T10:44:20Z</time>
      </trkpt>
      <trkpt lat="44.25558" lon="6.24901">
        <ele>1282.54</ele>
        <time>2016-02-15T10:44:35Z</time>
      </trkpt>
      <trkpt lat="44.25555" lon="6.24884">
        <ele>1283.02</ele>
        <time>2016-02-15T10:44:52Z</time>
      </trkpt>
      <trkpt lat="44.25547" lon="6.24867">
        <ele>1283.5</ele>
        <time>2016-02-15T10:45:09Z</time>
      </trkpt>
      <trkpt lat="44.25539" lon="6.2485">
        <ele>1283.98</ele>
        <time>2016-02-15T10:45:26Z</time>
      </trkpt>
      <trkpt lat="44.2553" lon="6.2483">
        <ele>1284.46</ele>
        <time>2016-02-15T10:45:46Z</time>
      </trkpt>
      <trkpt lat="44.25522" lon="6.24812">
        <ele>1284.94</ele>
        <time>2016-02-15T10:46:05Z</time>
      </trkpt>
      <trkpt lat="44.25519" lon="6.24798">
        <ele>1285.9</ele>
        <time>2016-02-15T10:46:21Z</time>
      </trkpt>
      <trkpt lat="44.25518" lon="6.24789">
        <ele>1286.38</ele>
        <time>2016-02-15T10:46:37Z</time>
      </trkpt>
      <trkpt lat="44.25518" lon="6.2479">
        <ele>1286.38</ele>
        <time>2016-02-15T10:47:03Z</time>
      </trkpt>
      <trkpt lat="44.25519" lon="6.24794">
        <ele>1284.94</ele>
        <time>2016-02-15T10:47:16Z</time>
      </trkpt>
      <trkpt lat="44.25519" lon="6.24791">
        <ele>1284.94</ele>
        <time>2016-02-15T10:47:45Z</time>
      </trkpt>
      <trkpt lat="44.2552" lon="6.24789">
        <ele>1285.9</ele>
        <time>2016-02-15T10:47:48Z</time>
      </trkpt>
      <trkpt lat="44.25519" lon="6.24789">
        <ele>1286.38</ele>
        <time>2016-02-15T10:48:12Z</time>
      </trkpt>
      <trkpt lat="44.25516" lon="6.2479">
        <ele>1286.38</ele>
        <time>2016-02-15T10:48:37Z</time>
      </trkpt>
      <trkpt lat="44.25515" lon="6.24783">
        <ele>1286.38</ele>
        <time>2016-02-15T10:48:56Z</time>
      </trkpt>
      <trkpt lat="44.2551" lon="6.24767">
        <ele>1287.34</ele>
        <time>2016-02-15T10:49:12Z</time>
      </trkpt>
      <trkpt lat="44.2551" lon="6.24766">
        <ele>1287.34</ele>
        <time>2016-02-15T10:49:13Z</time>
      </trkpt>
      <trkpt lat="44.25503" lon="6.24749">
        <ele>1287.34</ele>
        <time>2016-02-15T10:49:31Z</time>
      </trkpt>
      <trkpt lat="44.25496" lon="6.2474">
        <ele>1287.82</ele>
        <time>2016-02-15T10:49:44Z</time>
      </trkpt>
      <trkpt lat="44.25494" lon="6.24724">
        <ele>1288.3</ele>
        <time>2016-02-15T10:50:00Z</time>
      </trkpt>
      <trkpt lat="44.25493" lon="6.24708">
        <ele>1288.78</ele>
        <time>2016-02-15T10:50:14Z</time>
      </trkpt>
      <trkpt lat="44.2549" lon="6.24695">
        <ele>1290.71</ele>
        <time>2016-02-15T10:50:31Z</time>
      </trkpt>
      <trkpt lat="44.25488" lon="6.24678">
        <ele>1292.15</ele>
        <time>2016-02-15T10:50:50Z</time>
      </trkpt>
      <trkpt lat="44.25488" lon="6.24663">
        <ele>1293.11</ele>
        <time>2016-02-15T10:51:05Z</time>
      </trkpt>
      <trkpt lat="44.25487" lon="6.24648">
        <ele>1294.55</ele>
        <time>2016-02-15T10:51:23Z</time>
      </trkpt>
      <trkpt lat="44.25487" lon="6.24633">
        <ele>1297.44</ele>
        <time>2016-02-15T10:51:43Z</time>
      </trkpt>
      <trkpt lat="44.25486" lon="6.2462">
        <ele>1299.36</ele>
        <time>2016-02-15T10:52:02Z</time>
      </trkpt>
      <trkpt lat="44.25485" lon="6.24604">
        <ele>1301.76</ele>
        <time>2016-02-15T10:52:23Z</time>
      </trkpt>
      <trkpt lat="44.25482" lon="6.24588">
        <ele>1303.2</ele>
        <time>2016-02-15T10:52:42Z</time>
      </trkpt>
      <trkpt lat="44.25479" lon="6.24567">
        <ele>1304.17</ele>
        <time>2016-02-15T10:52:59Z</time>
      </trkpt>
      <trkpt lat="44.25479" lon="6.24546">
        <ele>1304.65</ele>
        <time>2016-02-15T10:53:16Z</time>
      </trkpt>
      <trkpt lat="44.2548" lon="6.24526">
        <ele>1304.65</ele>
        <time>2016-02-15T10:53:33Z</time>
      </trkpt>
      <trkpt lat="44.25477" lon="6.24509">
        <ele>1306.57</ele>
        <time>2016-02-15T10:53:52Z</time>
      </trkpt>
      <trkpt lat="44.25469" lon="6.24493">
        <ele>1307.53</ele>
        <time>2016-02-15T10:54:11Z</time>
      </trkpt>
      <trkpt lat="44.25468" lon="6.24475">
        <ele>1308.01</ele>
        <time>2016-02-15T10:54:27Z</time>
      </trkpt>
      <trkpt lat="44.25472" lon="6.24458">
        <ele>1308.49</ele>
        <time>2016-02-15T10:54:42Z</time>
      </trkpt>
      <trkpt lat="44.25477" lon="6.24439">
        <ele>1308.97</ele>
        <time>2016-02-15T10:55:01Z</time>
      </trkpt>
      <trkpt lat="44.25478" lon="6.24421">
        <ele>1310.41</ele>
        <time>2016-02-15T10:55:19Z</time>
      </trkpt>
      <trkpt lat="44.25476" lon="6.24407">
        <ele>1309.45</ele>
        <time>2016-02-15T10:55:34Z</time>
      </trkpt>
      <trkpt lat="44.25474" lon="6.24396">
        <ele>1308.01</ele>
        <time>2016-02-15T10:55:49Z</time>
      </trkpt>
      <trkpt lat="44.2547" lon="6.24382">
        <ele>1307.53</ele>
        <time>2016-02-15T10:56:04Z</time>
      </trkpt>
      <trkpt lat="44.25464" lon="6.24367">
        <ele>1307.53</ele>
        <time>2016-02-15T10:56:21Z</time>
      </trkpt>
      <trkpt lat="44.25458" lon="6.24353">
        <ele>1308.97</ele>
        <time>2016-02-15T10:56:36Z</time>
      </trkpt>
      <trkpt lat="44.2546" lon="6.24335">
        <ele>1308.97</ele>
        <time>2016-02-15T10:56:55Z</time>
      </trkpt>
      <trkpt lat="44.2546" lon="6.24317">
        <ele>1308.97</ele>
        <time>2016-02-15T10:57:11Z</time>
      </trkpt>
      <trkpt lat="44.25452" lon="6.24309">
        <ele>1308.97</ele>
        <time>2016-02-15T10:57:25Z</time>
      </trkpt>
      <trkpt lat="44.25442" lon="6.24317">
        <ele>1308.97</ele>
        <time>2016-02-15T10:57:40Z</time>
      </trkpt>
      <trkpt lat="44.25428" lon="6.24329">
        <ele>1308.97</ele>
        <time>2016-02-15T10:58:00Z</time>
      </trkpt>
      <trkpt lat="44.25416" lon="6.24327">
        <ele>1311.38</ele>
        <time>2016-02-15T10:58:18Z</time>
      </trkpt>
      <trkpt lat="44.25403" lon="6.24325">
        <ele>1311.86</ele>
        <time>2016-02-15T10:58:35Z</time>
      </trkpt>
      <trkpt lat="44.2539" lon="6.24313">
        <ele>1311.86</ele>
        <time>2016-02-15T10:58:55Z</time>
      </trkpt>
      <trkpt lat="44.25381" lon="6.24303">
        <ele>1313.3</ele>
        <time>2016-02-15T10:59:12Z</time>
      </trkpt>
      <trkpt lat="44.25371" lon="6.24301">
        <ele>1315.22</ele>
        <time>2016-02-15T10:59:30Z</time>
      </trkpt>
      <trkpt lat="44.25362" lon="6.24298">
        <ele>1318.1</ele>
        <time>2016-02-15T10:59:50Z</time>
      </trkpt>
      <trkpt lat="44.25354" lon="6.24296">
        <ele>1320.51</ele>
        <time>2016-02-15T11:00:09Z</time>
      </trkpt>
      <trkpt lat="44.25349" lon="6.24293">
        <ele>1321.95</ele>
        <time>2016-02-15T11:00:23Z</time>
      </trkpt>
      <trkpt lat="44.25343" lon="6.24286">
        <ele>1323.87</ele>
        <time>2016-02-15T11:00:42Z</time>
      </trkpt>
      <trkpt lat="44.25336" lon="6.24276">
        <ele>1326.28</ele>
        <time>2016-02-15T11:01:01Z</time>
      </trkpt>
      <trkpt lat="44.25331" lon="6.24268">
        <ele>1327.24</ele>
        <time>2016-02-15T11:01:16Z</time>
      </trkpt>
      <trkpt lat="44.25328" lon="6.24267">
        <ele>1328.2</ele>
        <time>2016-02-15T11:01:38Z</time>
      </trkpt>
      <trkpt lat="44.25324" lon="6.24262">
        <ele>1329.64</ele>
        <time>2016-02-15T11:01:52Z</time>
      </trkpt>
      <trkpt lat="44.25316" lon="6.24263">
        <ele>1331.56</ele>
        <time>2016-02-15T11:02:11Z</time>
      </trkpt>
      <trkpt lat="44.25307" lon="6.24262">
        <ele>1333.49</ele>
        <time>2016-02-15T11:02:30Z</time>
      </trkpt>
      <trkpt lat="44.25299" lon="6.24263">
        <ele>1335.89</ele>
        <time>2016-02-15T11:02:47Z</time>
      </trkpt>
      <trkpt lat="44.25292" lon="6.24261">
        <ele>1337.33</ele>
        <time>2016-02-15T11:03:05Z</time>
      </trkpt>
      <trkpt lat="44.25284" lon="6.24255">
        <ele>1339.25</ele>
        <time>2016-02-15T11:03:22Z</time>
      </trkpt>
      <trkpt lat="44.25276" lon="6.24247">
        <ele>1340.7</ele>
        <time>2016-02-15T11:03:38Z</time>
      </trkpt>
      <trkpt lat="44.25268" lon="6.24241">
        <ele>1343.58</ele>
        <time>2016-02-15T11:03:57Z</time>
      </trkpt>
      <trkpt lat="44.2526" lon="6.24234">
        <ele>1345.02</ele>
        <time>2016-02-15T11:04:14Z</time>
      </trkpt>
      <trkpt lat="44.25251" lon="6.24226">
        <ele>1346.94</ele>
        <time>2016-02-15T11:04:33Z</time>
      </trkpt>
      <trkpt lat="44.25251" lon="6.24223">
        <ele>1347.91</ele>
        <time>2016-02-15T11:04:53Z</time>
      </trkpt>
      <trkpt lat="44.25243" lon="6.24215">
        <ele>1347.91</ele>
        <time>2016-02-15T11:05:12Z</time>
      </trkpt>
      <trkpt lat="44.25235" lon="6.24206">
        <ele>1349.35</ele>
        <time>2016-02-15T11:05:30Z</time>
      </trkpt>
      <trkpt lat="44.25226" lon="6.24199">
        <ele>1350.79</ele>
        <time>2016-02-15T11:05:47Z</time>
      </trkpt>
      <trkpt lat="44.2522" lon="6.24199">
        <ele>1352.23</ele>
        <time>2016-02-15T11:06:01Z</time>
      </trkpt>
      <trkpt lat="44.25215" lon="6.24199">
        <ele>1354.15</ele>
        <time>2016-02-15T11:06:25Z</time>
      </trkpt>
      <trkpt lat="44.25215" lon="6.242">
        <ele>1355.12</ele>
        <time>2016-02-15T11:06:52Z</time>
      </trkpt>
      <trkpt lat="44.25218" lon="6.24198">
        <ele>1355.12</ele>
        <time>2016-02-15T11:07:20Z</time>
      </trkpt>
      <trkpt lat="44.25212" lon="6.24197">
        <ele>1355.12</ele>
        <time>2016-02-15T11:07:50Z</time>
      </trkpt>
      <trkpt lat="44.2521" lon="6.24198">
        <ele>1354.63</ele>
        <time>2016-02-15T11:08:16Z</time>
      </trkpt>
      <trkpt lat="44.25209" lon="6.24194">
        <ele>1355.12</ele>
        <time>2016-02-15T11:08:50Z</time>
      </trkpt>
      <trkpt lat="44.25204" lon="6.24191">
        <ele>1355.6</ele>
        <time>2016-02-15T11:09:16Z</time>
      </trkpt>
      <trkpt lat="44.25201" lon="6.24182">
        <ele>1355.6</ele>
        <time>2016-02-15T11:09:31Z</time>
      </trkpt>
      <trkpt lat="44.25198" lon="6.24176">
        <ele>1355.6</ele>
        <time>2016-02-15T11:09:53Z</time>
      </trkpt>
      <trkpt lat="44.25195" lon="6.24163">
        <ele>1356.08</ele>
        <time>2016-02-15T11:10:10Z</time>
      </trkpt>
      <trkpt lat="44.25189" lon="6.24147">
        <ele>1357.04</ele>
        <time>2016-02-15T11:10:28Z</time>
      </trkpt>
      <trkpt lat="44.25185" lon="6.2413">
        <ele>1358.48</ele>
        <time>2016-02-15T11:10:45Z</time>
      </trkpt>
      <trkpt lat="44.25178" lon="6.2411">
        <ele>1359.92</ele>
        <time>2016-02-15T11:11:06Z</time>
      </trkpt>
      <trkpt lat="44.25175" lon="6.24104">
        <ele>1360.4</ele>
        <time>2016-02-15T11:11:26Z</time>
      </trkpt>
      <trkpt lat="44.25167" lon="6.24091">
        <ele>1362.33</ele>
        <time>2016-02-15T11:11:45Z</time>
      </trkpt>
      <trkpt lat="44.25161" lon="6.24081">
        <ele>1363.29</ele>
        <time>2016-02-15T11:12:03Z</time>
      </trkpt>
      <trkpt lat="44.25163" lon="6.24082">
        <ele>1364.25</ele>
        <time>2016-02-15T11:12:44Z</time>
      </trkpt>
      <trkpt lat="44.25162" lon="6.24079">
        <ele>1362.81</ele>
        <time>2016-02-15T11:13:12Z</time>
      </trkpt>
      <trkpt lat="44.25164" lon="6.24078">
        <ele>1362.81</ele>
        <time>2016-02-15T11:13:39Z</time>
      </trkpt>
      <trkpt lat="44.25157" lon="6.24068">
        <ele>1364.73</ele>
        <time>2016-02-15T11:13:54Z</time>
      </trkpt>
      <trkpt lat="44.25155" lon="6.24052">
        <ele>1365.69</ele>
        <time>2016-02-15T11:14:10Z</time>
      </trkpt>
      <trkpt lat="44.25151" lon="6.24034">
        <ele>1367.61</ele>
        <time>2016-02-15T11:14:29Z</time>
      </trkpt>
      <trkpt lat="44.25148" lon="6.24021">
        <ele>1369.54</ele>
        <time>2016-02-15T11:14:45Z</time>
      </trkpt>
      <trkpt lat="44.25149" lon="6.24003">
        <ele>1371.46</ele>
        <time>2016-02-15T11:15:05Z</time>
      </trkpt>
      <trkpt lat="44.25152" lon="6.23996">
        <ele>1372.42</ele>
        <time>2016-02-15T11:15:25Z</time>
      </trkpt>
      <trkpt lat="44.25156" lon="6.23982">
        <ele>1374.34</ele>
        <time>2016-02-15T11:15:43Z</time>
      </trkpt>
      <trkpt lat="44.25158" lon="6.23966">
        <ele>1375.78</ele>
        <time>2016-02-15T11:16:03Z</time>
      </trkpt>
      <trkpt lat="44.25163" lon="6.23953">
        <ele>1376.26</ele>
        <time>2016-02-15T11:16:19Z</time>
      </trkpt>
      <trkpt lat="44.25163" lon="6.23951">
        <ele>1377.23</ele>
        <time>2016-02-15T11:16:22Z</time>
      </trkpt>
      <trkpt lat="44.25166" lon="6.23938">
        <ele>1379.15</ele>
        <time>2016-02-15T11:16:39Z</time>
      </trkpt>
      <trkpt lat="44.25172" lon="6.23927">
        <ele>1380.11</ele>
        <time>2016-02-15T11:16:57Z</time>
      </trkpt>
      <trkpt lat="44.25183" lon="6.23924">
        <ele>1383.47</ele>
        <time>2016-02-15T11:17:14Z</time>
      </trkpt>
      <trkpt lat="44.2519" lon="6.23927">
        <ele>1385.4</ele>
        <time>2016-02-15T11:17:32Z</time>
      </trkpt>
      <trkpt lat="44.25197" lon="6.23935">
        <ele>1387.8</ele>
        <time>2016-02-15T11:17:49Z</time>
      </trkpt>
      <trkpt lat="44.25207" lon="6.23942">
        <ele>1389.72</ele>
        <time>2016-02-15T11:18:08Z</time>
      </trkpt>
      <trkpt lat="44.25217" lon="6.23945">
        <ele>1391.65</ele>
        <time>2016-02-15T11:18:27Z</time>
      </trkpt>
      <trkpt lat="44.25221" lon="6.23942">
        <ele>1393.57</ele>
        <time>2016-02-15T11:18:45Z</time>
      </trkpt>
      <trkpt lat="44.25224" lon="6.23939">
        <ele>1393.57</ele>
        <time>2016-02-15T11:19:07Z</time>
      </trkpt>
      <trkpt lat="44.25223" lon="6.23922">
        <ele>1395.01</ele>
        <time>2016-02-15T11:19:26Z</time>
      </trkpt>
      <trkpt lat="44.25226" lon="6.23912">
        <ele>1396.45</ele>
        <time>2016-02-15T11:19:42Z</time>
      </trkpt>
      <trkpt lat="44.25228" lon="6.23909">
        <ele>1397.89</ele>
        <time>2016-02-15T11:19:50Z</time>
      </trkpt>
      <trkpt lat="44.25234" lon="6.23897">
        <ele>1399.82</ele>
        <time>2016-02-15T11:20:11Z</time>
      </trkpt>
      <trkpt lat="44.25239" lon="6.23887">
        <ele>1402.22</ele>
        <time>2016-02-15T11:20:29Z</time>
      </trkpt>
      <trkpt lat="44.25243" lon="6.23879">
        <ele>1404.14</ele>
        <time>2016-02-15T11:20:43Z</time>
      </trkpt>
      <trkpt lat="44.25249" lon="6.23868">
        <ele>1405.58</ele>
        <time>2016-02-15T11:21:01Z</time>
      </trkpt>
      <trkpt lat="44.25254" lon="6.23858">
        <ele>1407.51</ele>
        <time>2016-02-15T11:21:19Z</time>
      </trkpt>
      <trkpt lat="44.2526" lon="6.23845">
        <ele>1409.43</ele>
        <time>2016-02-15T11:21:36Z</time>
      </trkpt>
      <trkpt lat="44.25264" lon="6.23832">
        <ele>1410.87</ele>
        <time>2016-02-15T11:21:56Z</time>
      </trkpt>
      <trkpt lat="44.25267" lon="6.2382">
        <ele>1411.83</ele>
        <time>2016-02-15T11:22:14Z</time>
      </trkpt>
      <trkpt lat="44.25273" lon="6.23803">
        <ele>1412.79</ele>
        <time>2016-02-15T11:22:34Z</time>
      </trkpt>
      <trkpt lat="44.25274" lon="6.23788">
        <ele>1414.24</ele>
        <time>2016-02-15T11:22:50Z</time>
      </trkpt>
      <trkpt lat="44.25279" lon="6.23777">
        <ele>1416.16</ele>
        <time>2016-02-15T11:23:10Z</time>
      </trkpt>
      <trkpt lat="44.25283" lon="6.23772">
        <ele>1417.6</ele>
        <time>2016-02-15T11:23:19Z</time>
      </trkpt>
      <trkpt lat="44.25288" lon="6.23758">
        <ele>1418.56</ele>
        <time>2016-02-15T11:23:40Z</time>
      </trkpt>
      <trkpt lat="44.25291" lon="6.23749">
        <ele>1420.49</ele>
        <time>2016-02-15T11:23:58Z</time>
      </trkpt>
      <trkpt lat="44.25294" lon="6.23737">
        <ele>1421.45</ele>
        <time>2016-02-15T11:24:20Z</time>
      </trkpt>
      <trkpt lat="44.25299" lon="6.23717">
        <ele>1423.37</ele>
        <time>2016-02-15T11:24:40Z</time>
      </trkpt>
      <trkpt lat="44.25301" lon="6.23699">
        <ele>1423.85</ele>
        <time>2016-02-15T11:24:59Z</time>
      </trkpt>
      <trkpt lat="44.25299" lon="6.23682">
        <ele>1424.81</ele>
        <time>2016-02-15T11:25:16Z</time>
      </trkpt>
      <trkpt lat="44.25293" lon="6.23671">
        <ele>1428.18</ele>
        <time>2016-02-15T11:25:32Z</time>
      </trkpt>
      <trkpt lat="44.25287" lon="6.23661">
        <ele>1429.62</ele>
        <time>2016-02-15T11:25:49Z</time>
      </trkpt>
      <trkpt lat="44.25278" lon="6.23651">
        <ele>1432.02</ele>
        <time>2016-02-15T11:26:06Z</time>
      </trkpt>
      <trkpt lat="44.25274" lon="6.23647">
        <ele>1433.46</ele>
        <time>2016-02-15T11:26:24Z</time>
      </trkpt>
      <trkpt lat="44.25268" lon="6.23634">
        <ele>1433.94</ele>
        <time>2016-02-15T11:26:42Z</time>
      </trkpt>
      <trkpt lat="44.25261" lon="6.23622">
        <ele>1435.87</ele>
        <time>2016-02-15T11:27:01Z</time>
      </trkpt>
      <trkpt lat="44.25255" lon="6.23609">
        <ele>1437.31</ele>
        <time>2016-02-15T11:27:22Z</time>
      </trkpt>
      <trkpt lat="44.25252" lon="6.23602">
        <ele>1439.23</ele>
        <time>2016-02-15T11:27:38Z</time>
      </trkpt>
      <trkpt lat="44.25249" lon="6.23593">
        <ele>1441.63</ele>
        <time>2016-02-15T11:27:55Z</time>
      </trkpt>
      <trkpt lat="44.25245" lon="6.23586">
        <ele>1443.08</ele>
        <time>2016-02-15T11:28:10Z</time>
      </trkpt>
      <trkpt lat="44.2524" lon="6.23578">
        <ele>1445</ele>
        <time>2016-02-15T11:28:25Z</time>
      </trkpt>
      <trkpt lat="44.25232" lon="6.23568">
        <ele>1446.44</ele>
        <time>2016-02-15T11:28:44Z</time>
      </trkpt>
      <trkpt lat="44.2523" lon="6.2356">
        <ele>1447.88</ele>
        <time>2016-02-15T11:28:59Z</time>
      </trkpt>
      <trkpt lat="44.25228" lon="6.23551">
        <ele>1449.32</ele>
        <time>2016-02-15T11:29:15Z</time>
      </trkpt>
      <trkpt lat="44.2523" lon="6.2355">
        <ele>1450.77</ele>
        <time>2016-02-15T11:29:19Z</time>
      </trkpt>
      <trkpt lat="44.25236" lon="6.23549">
        <ele>1452.21</ele>
        <time>2016-02-15T11:29:35Z</time>
      </trkpt>
      <trkpt lat="44.25234" lon="6.23546">
        <ele>1452.21</ele>
        <time>2016-02-15T11:29:52Z</time>
      </trkpt>
      <trkpt lat="44.2523" lon="6.23542">
        <ele>1453.65</ele>
        <time>2016-02-15T11:30:15Z</time>
      </trkpt>
      <trkpt lat="44.25227" lon="6.23532">
        <ele>1455.09</ele>
        <time>2016-02-15T11:30:34Z</time>
      </trkpt>
      <trkpt lat="44.25223" lon="6.23525">
        <ele>1457.5</ele>
        <time>2016-02-15T11:30:49Z</time>
      </trkpt>
      <trkpt lat="44.25218" lon="6.23516">
        <ele>1458.94</ele>
        <time>2016-02-15T11:31:10Z</time>
      </trkpt>
      <trkpt lat="44.25216" lon="6.23508">
        <ele>1460.86</ele>
        <time>2016-02-15T11:31:26Z</time>
      </trkpt>
      <trkpt lat="44.2521" lon="6.23498">
        <ele>1462.78</ele>
        <time>2016-02-15T11:31:44Z</time>
      </trkpt>
      <trkpt lat="44.25204" lon="6.23491">
        <ele>1464.23</ele>
        <time>2016-02-15T11:31:59Z</time>
      </trkpt>
      <trkpt lat="44.25202" lon="6.23485">
        <ele>1465.67</ele>
        <time>2016-02-15T11:32:17Z</time>
      </trkpt>
      <trkpt lat="44.25198" lon="6.23475">
        <ele>1467.59</ele>
        <time>2016-02-15T11:32:34Z</time>
      </trkpt>
      <trkpt lat="44.25191" lon="6.23464">
        <ele>1469.03</ele>
        <time>2016-02-15T11:32:52Z</time>
      </trkpt>
      <trkpt lat="44.25191" lon="6.23462">
        <ele>1467.59</ele>
        <time>2016-02-15T11:32:55Z</time>
      </trkpt>
      <trkpt lat="44.25192" lon="6.2346">
        <ele>1469.03</ele>
        <time>2016-02-15T11:32:58Z</time>
      </trkpt>
      <trkpt lat="44.25187" lon="6.23449">
        <ele>1470.95</ele>
        <time>2016-02-15T11:33:15Z</time>
      </trkpt>
      <trkpt lat="44.25185" lon="6.23436">
        <ele>1472.88</ele>
        <time>2016-02-15T11:33:33Z</time>
      </trkpt>
      <trkpt lat="44.25181" lon="6.23425">
        <ele>1473.84</ele>
        <time>2016-02-15T11:33:50Z</time>
      </trkpt>
      <trkpt lat="44.25178" lon="6.23413">
        <ele>1475.76</ele>
        <time>2016-02-15T11:34:07Z</time>
      </trkpt>
      <trkpt lat="44.25178" lon="6.23402">
        <ele>1473.36</ele>
        <time>2016-02-15T11:34:17Z</time>
      </trkpt>
      <trkpt lat="44.25179" lon="6.23399">
        <ele>1474.8</ele>
        <time>2016-02-15T11:34:20Z</time>
      </trkpt>
      <trkpt lat="44.25178" lon="6.23383">
        <ele>1473.36</ele>
        <time>2016-02-15T11:34:36Z</time>
      </trkpt>
      <trkpt lat="44.25178" lon="6.23382">
        <ele>1474.8</ele>
        <time>2016-02-15T11:34:38Z</time>
      </trkpt>
      <trkpt lat="44.2518" lon="6.23364">
        <ele>1476.24</ele>
        <time>2016-02-15T11:34:56Z</time>
      </trkpt>
      <trkpt lat="44.2518" lon="6.23357">
        <ele>1477.68</ele>
        <time>2016-02-15T11:35:06Z</time>
      </trkpt>
      <trkpt lat="44.25182" lon="6.23341">
        <ele>1479.13</ele>
        <time>2016-02-15T11:35:24Z</time>
      </trkpt>
      <trkpt lat="44.25184" lon="6.23326">
        <ele>1480.09</ele>
        <time>2016-02-15T11:35:42Z</time>
      </trkpt>
      <trkpt lat="44.25185" lon="6.23325">
        <ele>1478.65</ele>
        <time>2016-02-15T11:35:44Z</time>
      </trkpt>
      <trkpt lat="44.25187" lon="6.23314">
        <ele>1480.09</ele>
        <time>2016-02-15T11:35:57Z</time>
      </trkpt>
      <trkpt lat="44.25179" lon="6.23304">
        <ele>1481.05</ele>
        <time>2016-02-15T11:36:15Z</time>
      </trkpt>
      <trkpt lat="44.25172" lon="6.23292">
        <ele>1482.01</ele>
        <time>2016-02-15T11:36:31Z</time>
      </trkpt>
      <trkpt lat="44.25164" lon="6.2328">
        <ele>1482.49</ele>
        <time>2016-02-15T11:36:48Z</time>
      </trkpt>
      <trkpt lat="44.25154" lon="6.23271">
        <ele>1484.41</ele>
        <time>2016-02-15T11:37:07Z</time>
      </trkpt>
      <trkpt lat="44.25147" lon="6.23264">
        <ele>1485.85</ele>
        <time>2016-02-15T11:37:23Z</time>
      </trkpt>
      <trkpt lat="44.25136" lon="6.23254">
        <ele>1486.82</ele>
        <time>2016-02-15T11:37:43Z</time>
      </trkpt>
      <trkpt lat="44.25128" lon="6.23247">
        <ele>1487.78</ele>
        <time>2016-02-15T11:38:00Z</time>
      </trkpt>
      <trkpt lat="44.25128" lon="6.23231">
        <ele>1490.18</ele>
        <time>2016-02-15T11:38:17Z</time>
      </trkpt>
      <trkpt lat="44.25126" lon="6.23228">
        <ele>1490.18</ele>
        <time>2016-02-15T11:38:38Z</time>
      </trkpt>
      <trkpt lat="44.25124" lon="6.23214">
        <ele>1492.1</ele>
        <time>2016-02-15T11:38:56Z</time>
      </trkpt>
      <trkpt lat="44.25124" lon="6.23202">
        <ele>1492.58</ele>
        <time>2016-02-15T11:39:13Z</time>
      </trkpt>
      <trkpt lat="44.25122" lon="6.23186">
        <ele>1494.03</ele>
        <time>2016-02-15T11:39:32Z</time>
      </trkpt>
      <trkpt lat="44.2512" lon="6.23173">
        <ele>1495.47</ele>
        <time>2016-02-15T11:39:47Z</time>
      </trkpt>
      <trkpt lat="44.25119" lon="6.23163">
        <ele>1497.39</ele>
        <time>2016-02-15T11:40:07Z</time>
      </trkpt>
      <trkpt lat="44.25115" lon="6.23153">
        <ele>1498.35</ele>
        <time>2016-02-15T11:40:28Z</time>
      </trkpt>
      <trkpt lat="44.25113" lon="6.23141">
        <ele>1501.24</ele>
        <time>2016-02-15T11:40:48Z</time>
      </trkpt>
      <trkpt lat="44.25106" lon="6.23137">
        <ele>1502.68</ele>
        <time>2016-02-15T11:41:01Z</time>
      </trkpt>
      <trkpt lat="44.25096" lon="6.23144">
        <ele>1501.24</ele>
        <time>2016-02-15T11:41:17Z</time>
      </trkpt>
      <trkpt lat="44.25087" lon="6.23147">
        <ele>1501.24</ele>
        <time>2016-02-15T11:41:33Z</time>
      </trkpt>
      <trkpt lat="44.25086" lon="6.23149">
        <ele>1500.76</ele>
        <time>2016-02-15T11:41:56Z</time>
      </trkpt>
      <trkpt lat="44.25086" lon="6.23147">
        <ele>1500.76</ele>
        <time>2016-02-15T11:42:11Z</time>
      </trkpt>
      <trkpt lat="44.25084" lon="6.2315">
        <ele>1500.76</ele>
        <time>2016-02-15T11:42:32Z</time>
      </trkpt>
      <trkpt lat="44.25082" lon="6.23155">
        <ele>1501.24</ele>
        <time>2016-02-15T11:42:52Z</time>
      </trkpt>
      <trkpt lat="44.25082" lon="6.23157">
        <ele>1499.31</ele>
        <time>2016-02-15T11:43:14Z</time>
      </trkpt>
      <trkpt lat="44.25086" lon="6.23157">
        <ele>1498.83</ele>
        <time>2016-02-15T11:43:51Z</time>
      </trkpt>
      <trkpt lat="44.25095" lon="6.23155">
        <ele>1498.83</ele>
        <time>2016-02-15T11:44:13Z</time>
      </trkpt>
      <trkpt lat="44.25089" lon="6.2316">
        <ele>1498.83</ele>
        <time>2016-02-15T11:44:39Z</time>
      </trkpt>
      <trkpt lat="44.25088" lon="6.2316">
        <ele>1497.87</ele>
        <time>2016-02-15T11:45:06Z</time>
      </trkpt>
      <trkpt lat="44.25089" lon="6.23159">
        <ele>1499.31</ele>
        <time>2016-02-15T11:45:07Z</time>
      </trkpt>
      <trkpt lat="44.25094" lon="6.23156">
        <ele>1499.79</ele>
        <time>2016-02-15T11:45:12Z</time>
      </trkpt>
      <trkpt lat="44.25105" lon="6.23149">
        <ele>1498.35</ele>
        <time>2016-02-15T11:45:20Z</time>
      </trkpt>
      <trkpt lat="44.2513" lon="6.23133">
        <ele>1498.83</ele>
        <time>2016-02-15T11:45:41Z</time>
      </trkpt>
      <trkpt lat="44.25141" lon="6.23132">
        <ele>1498.35</ele>
        <time>2016-02-15T11:46:00Z</time>
      </trkpt>
      <trkpt lat="44.25131" lon="6.23134">
        <ele>1497.87</ele>
        <time>2016-02-15T11:46:21Z</time>
      </trkpt>
      <trkpt lat="44.2513" lon="6.2313">
        <ele>1497.87</ele>
        <time>2016-02-15T11:46:46Z</time>
      </trkpt>
      <trkpt lat="44.25098" lon="6.23148">
        <ele>1497.87</ele>
        <time>2016-02-15T11:47:13Z</time>
      </trkpt>
      <trkpt lat="44.25093" lon="6.23141">
        <ele>1497.87</ele>
        <time>2016-02-15T11:47:25Z</time>
      </trkpt>
      <trkpt lat="44.25077" lon="6.23133">
        <ele>1497.87</ele>
        <time>2016-02-15T11:47:48Z</time>
      </trkpt>
      <trkpt lat="44.25093" lon="6.23132">
        <ele>1497.39</ele>
        <time>2016-02-15T11:48:12Z</time>
      </trkpt>
      <trkpt lat="44.25094" lon="6.23147">
        <ele>1496.91</ele>
        <time>2016-02-15T11:48:34Z</time>
      </trkpt>
      <trkpt lat="44.25084" lon="6.23159">
        <ele>1496.91</ele>
        <time>2016-02-15T11:49:02Z</time>
      </trkpt>
      <trkpt lat="44.25076" lon="6.23165">
        <ele>1496.91</ele>
        <time>2016-02-15T11:49:27Z</time>
      </trkpt>
      <trkpt lat="44.25075" lon="6.23166">
        <ele>1496.91</ele>
        <time>2016-02-15T11:49:29Z</time>
      </trkpt>
      <trkpt lat="44.25073" lon="6.23167">
        <ele>1496.91</ele>
        <time>2016-02-15T11:49:32Z</time>
      </trkpt>
      <trkpt lat="44.25042" lon="6.23208">
        <ele>1496.91</ele>
        <time>2016-02-15T11:50:04Z</time>
      </trkpt>
      <trkpt lat="44.25035" lon="6.23204">
        <ele>1496.91</ele>
        <time>2016-02-15T11:50:29Z</time>
      </trkpt>
      <trkpt lat="44.25041" lon="6.232">
        <ele>1496.91</ele>
        <time>2016-02-15T11:50:49Z</time>
      </trkpt>
      <trkpt lat="44.25042" lon="6.23214">
        <ele>1496.43</ele>
        <time>2016-02-15T11:51:00Z</time>
      </trkpt>
      <trkpt lat="44.2503" lon="6.23194">
        <ele>1496.43</ele>
        <time>2016-02-15T11:51:25Z</time>
      </trkpt>
      <trkpt lat="44.25052" lon="6.23185">
        <ele>1496.43</ele>
        <time>2016-02-15T11:51:48Z</time>
      </trkpt>
      <trkpt lat="44.25074" lon="6.23167">
        <ele>1496.43</ele>
        <time>2016-02-15T11:52:13Z</time>
      </trkpt>
      <trkpt lat="44.2508" lon="6.23162">
        <ele>1496.43</ele>
        <time>2016-02-15T11:52:37Z</time>
      </trkpt>
      <trkpt lat="44.25068" lon="6.23163">
        <ele>1496.43</ele>
        <time>2016-02-15T11:52:56Z</time>
      </trkpt>
      <trkpt lat="44.25052" lon="6.23159">
        <ele>1496.43</ele>
        <time>2016-02-15T11:53:20Z</time>
      </trkpt>
      <trkpt lat="44.25066" lon="6.23163">
        <ele>1496.43</ele>
        <time>2016-02-15T11:53:47Z</time>
      </trkpt>
      <trkpt lat="44.2508" lon="6.23158">
        <ele>1495.95</ele>
        <time>2016-02-15T11:54:12Z</time>
      </trkpt>
      <trkpt lat="44.25089" lon="6.23159">
        <ele>1495.95</ele>
        <time>2016-02-15T11:54:37Z</time>
      </trkpt>
      <trkpt lat="44.25084" lon="6.23157">
        <ele>1495.95</ele>
        <time>2016-02-15T11:55:00Z</time>
      </trkpt>
      <trkpt lat="44.25083" lon="6.23156">
        <ele>1495.95</ele>
        <time>2016-02-15T11:55:33Z</time>
      </trkpt>
      <trkpt lat="44.25089" lon="6.23154">
        <ele>1495.95</ele>
        <time>2016-02-15T11:55:51Z</time>
      </trkpt>
      <trkpt lat="44.25077" lon="6.23138">
        <ele>1495.95</ele>
        <time>2016-02-15T11:56:24Z</time>
      </trkpt>
      <trkpt lat="44.25054" lon="6.23136">
        <ele>1495.95</ele>
        <time>2016-02-15T11:56:55Z</time>
      </trkpt>
      <trkpt lat="44.2505" lon="6.23138">
        <ele>1495.95</ele>
        <time>2016-02-15T11:57:15Z</time>
      </trkpt>
      <trkpt lat="44.25074" lon="6.23159">
        <ele>1495.95</ele>
        <time>2016-02-15T11:58:02Z</time>
      </trkpt>
      <trkpt lat="44.25072" lon="6.23161">
        <ele>1495.95</ele>
        <time>2016-02-15T11:58:38Z</time>
      </trkpt>
      <trkpt lat="44.25046" lon="6.23175">
        <ele>1495.95</ele>
        <time>2016-02-15T11:59:06Z</time>
      </trkpt>
      <trkpt lat="44.25094" lon="6.23153">
        <ele>1497.39</ele>
        <time>2016-02-15T12:05:34Z</time>
      </trkpt>
      <trkpt lat="44.25094" lon="6.23152">
        <ele>1497.39</ele>
        <time>2016-02-15T12:05:56Z</time>
      </trkpt>
      <trkpt lat="44.25096" lon="6.23152">
        <ele>1497.39</ele>
        <time>2016-02-15T12:06:23Z</time>
      </trkpt>
      <trkpt lat="44.25097" lon="6.23152">
        <ele>1497.87</ele>
        <time>2016-02-15T12:06:46Z</time>
      </trkpt>
      <trkpt lat="44.25097" lon="6.23153">
        <ele>1496.43</ele>
        <time>2016-02-15T12:07:13Z</time>
      </trkpt>
      <trkpt lat="44.25097" lon="6.23154">
        <ele>1497.87</ele>
        <time>2016-02-15T12:07:19Z</time>
      </trkpt>
      <trkpt lat="44.25098" lon="6.2315">
        <ele>1497.87</ele>
        <time>2016-02-15T12:07:38Z</time>
      </trkpt>
      <trkpt lat="44.25099" lon="6.23153">
        <ele>1497.87</ele>
        <time>2016-02-15T12:08:06Z</time>
      </trkpt>
      <trkpt lat="44.25097" lon="6.23154">
        <ele>1497.87</ele>
        <time>2016-02-15T12:08:33Z</time>
      </trkpt>
      <trkpt lat="44.25098" lon="6.23156">
        <ele>1497.87</ele>
        <time>2016-02-15T12:08:57Z</time>
      </trkpt>
      <trkpt lat="44.25097" lon="6.23155">
        <ele>1496.43</ele>
        <time>2016-02-15T12:09:09Z</time>
      </trkpt>
      <trkpt lat="44.25096" lon="6.23153">
        <ele>1496.43</ele>
        <time>2016-02-15T12:09:32Z</time>
      </trkpt>
      <trkpt lat="44.25097" lon="6.23153">
        <ele>1496.43</ele>
        <time>2016-02-15T12:10:02Z</time>
      </trkpt>
      <trkpt lat="44.25092" lon="6.23151">
        <ele>1497.87</ele>
        <time>2016-02-15T12:10:23Z</time>
      </trkpt>
      <trkpt lat="44.2509" lon="6.23142">
        <ele>1498.35</ele>
        <time>2016-02-15T12:10:41Z</time>
      </trkpt>
      <trkpt lat="44.25098" lon="6.23136">
        <ele>1499.79</ele>
        <time>2016-02-15T12:10:57Z</time>
      </trkpt>
      <trkpt lat="44.25096" lon="6.23124">
        <ele>1502.68</ele>
        <time>2016-02-15T12:11:13Z</time>
      </trkpt>
      <trkpt lat="44.25094" lon="6.23115">
        <ele>1505.08</ele>
        <time>2016-02-15T12:11:28Z</time>
      </trkpt>
      <trkpt lat="44.2509" lon="6.23108">
        <ele>1507</ele>
        <time>2016-02-15T12:11:47Z</time>
      </trkpt>
      <trkpt lat="44.25084" lon="6.23104">
        <ele>1507.48</ele>
        <time>2016-02-15T12:12:21Z</time>
      </trkpt>
      <trkpt lat="44.25082" lon="6.23098">
        <ele>1508.93</ele>
        <time>2016-02-15T12:12:50Z</time>
      </trkpt>
      <trkpt lat="44.25087" lon="6.23085">
        <ele>1510.85</ele>
        <time>2016-02-15T12:13:08Z</time>
      </trkpt>
      <trkpt lat="44.25083" lon="6.23074">
        <ele>1513.73</ele>
        <time>2016-02-15T12:13:22Z</time>
      </trkpt>
      <trkpt lat="44.25071" lon="6.23066">
        <ele>1515.18</ele>
        <time>2016-02-15T12:13:40Z</time>
      </trkpt>
      <trkpt lat="44.25059" lon="6.23061">
        <ele>1516.14</ele>
        <time>2016-02-15T12:13:55Z</time>
      </trkpt>
      <trkpt lat="44.25048" lon="6.23054">
        <ele>1517.1</ele>
        <time>2016-02-15T12:14:11Z</time>
      </trkpt>
      <trkpt lat="44.25042" lon="6.23049">
        <ele>1518.06</ele>
        <time>2016-02-15T12:14:27Z</time>
      </trkpt>
      <trkpt lat="44.25032" lon="6.23054">
        <ele>1520.46</ele>
        <time>2016-02-15T12:14:44Z</time>
      </trkpt>
      <trkpt lat="44.25027" lon="6.23071">
        <ele>1521.9</ele>
        <time>2016-02-15T12:15:01Z</time>
      </trkpt>
      <trkpt lat="44.25021" lon="6.23077">
        <ele>1522.87</ele>
        <time>2016-02-15T12:15:16Z</time>
      </trkpt>
      <trkpt lat="44.25013" lon="6.23066">
        <ele>1525.27</ele>
        <time>2016-02-15T12:15:34Z</time>
      </trkpt>
      <trkpt lat="44.25007" lon="6.23061">
        <ele>1527.67</ele>
        <time>2016-02-15T12:15:51Z</time>
      </trkpt>
      <trkpt lat="44.25004" lon="6.23054">
        <ele>1530.56</ele>
        <time>2016-02-15T12:16:08Z</time>
      </trkpt>
      <trkpt lat="44.24998" lon="6.23047">
        <ele>1532.48</ele>
        <time>2016-02-15T12:16:24Z</time>
      </trkpt>
      <trkpt lat="44.24994" lon="6.23043">
        <ele>1534.88</ele>
        <time>2016-02-15T12:16:38Z</time>
      </trkpt>
      <trkpt lat="44.24991" lon="6.23039">
        <ele>1537.29</ele>
        <time>2016-02-15T12:16:51Z</time>
      </trkpt>
      <trkpt lat="44.24985" lon="6.23038">
        <ele>1538.73</ele>
        <time>2016-02-15T12:17:11Z</time>
      </trkpt>
      <trkpt lat="44.24981" lon="6.23033">
        <ele>1541.13</ele>
        <time>2016-02-15T12:17:25Z</time>
      </trkpt>
      <trkpt lat="44.24976" lon="6.23022">
        <ele>1544.01</ele>
        <time>2016-02-15T12:17:42Z</time>
      </trkpt>
      <trkpt lat="44.2497" lon="6.23016">
        <ele>1546.9</ele>
        <time>2016-02-15T12:18:02Z</time>
      </trkpt>
      <trkpt lat="44.24965" lon="6.23014">
        <ele>1548.82</ele>
        <time>2016-02-15T12:18:12Z</time>
      </trkpt>
      <trkpt lat="44.24958" lon="6.23008">
        <ele>1550.74</ele>
        <time>2016-02-15T12:18:32Z</time>
      </trkpt>
      <trkpt lat="44.24956" lon="6.23004">
        <ele>1552.19</ele>
        <time>2016-02-15T12:18:51Z</time>
      </trkpt>
      <trkpt lat="44.2495" lon="6.23">
        <ele>1552.67</ele>
        <time>2016-02-15T12:19:13Z</time>
      </trkpt>
      <trkpt lat="44.24944" lon="6.22995">
        <ele>1556.03</ele>
        <time>2016-02-15T12:19:29Z</time>
      </trkpt>
      <trkpt lat="44.24938" lon="6.22988">
        <ele>1558.92</ele>
        <time>2016-02-15T12:19:44Z</time>
      </trkpt>
      <trkpt lat="44.24934" lon="6.22977">
        <ele>1560.36</ele>
        <time>2016-02-15T12:19:59Z</time>
      </trkpt>
      <trkpt lat="44.24932" lon="6.22968">
        <ele>1558.92</ele>
        <time>2016-02-15T12:20:14Z</time>
      </trkpt>
      <trkpt lat="44.24933" lon="6.22967">
        <ele>1560.36</ele>
        <time>2016-02-15T12:20:20Z</time>
      </trkpt>
      <trkpt lat="44.2493" lon="6.22952">
        <ele>1561.8</ele>
        <time>2016-02-15T12:20:35Z</time>
      </trkpt>
      <trkpt lat="44.2493" lon="6.22938">
        <ele>1564.2</ele>
        <time>2016-02-15T12:20:52Z</time>
      </trkpt>
      <trkpt lat="44.24932" lon="6.22923">
        <ele>1566.61</ele>
        <time>2016-02-15T12:21:07Z</time>
      </trkpt>
      <trkpt lat="44.2493" lon="6.22906">
        <ele>1568.53</ele>
        <time>2016-02-15T12:21:23Z</time>
      </trkpt>
      <trkpt lat="44.24928" lon="6.22897">
        <ele>1569.01</ele>
        <time>2016-02-15T12:21:38Z</time>
      </trkpt>
      <trkpt lat="44.24924" lon="6.22881">
        <ele>1570.93</ele>
        <time>2016-02-15T12:21:54Z</time>
      </trkpt>
      <trkpt lat="44.2492" lon="6.22874">
        <ele>1572.37</ele>
        <time>2016-02-15T12:22:08Z</time>
      </trkpt>
      <trkpt lat="44.24915" lon="6.22869">
        <ele>1573.82</ele>
        <time>2016-02-15T12:22:27Z</time>
      </trkpt>
      <trkpt lat="44.24905" lon="6.22862">
        <ele>1576.22</ele>
        <time>2016-02-15T12:22:45Z</time>
      </trkpt>
      <trkpt lat="44.24897" lon="6.22853">
        <ele>1579.58</ele>
        <time>2016-02-15T12:23:04Z</time>
      </trkpt>
      <trkpt lat="44.24891" lon="6.22845">
        <ele>1581.51</ele>
        <time>2016-02-15T12:23:22Z</time>
      </trkpt>
      <trkpt lat="44.24884" lon="6.22836">
        <ele>1583.91</ele>
        <time>2016-02-15T12:23:38Z</time>
      </trkpt>
      <trkpt lat="44.24882" lon="6.22835">
        <ele>1584.39</ele>
        <time>2016-02-15T12:23:59Z</time>
      </trkpt>
      <trkpt lat="44.24877" lon="6.22827">
        <ele>1585.83</ele>
        <time>2016-02-15T12:24:12Z</time>
      </trkpt>
      <trkpt lat="44.24867" lon="6.22824">
        <ele>1588.24</ele>
        <time>2016-02-15T12:24:28Z</time>
      </trkpt>
      <trkpt lat="44.24859" lon="6.2282">
        <ele>1591.12</ele>
        <time>2016-02-15T12:24:45Z</time>
      </trkpt>
      <trkpt lat="44.24857" lon="6.22805">
        <ele>1592.56</ele>
        <time>2016-02-15T12:25:00Z</time>
      </trkpt>
      <trkpt lat="44.24854" lon="6.22792">
        <ele>1594.96</ele>
        <time>2016-02-15T12:25:16Z</time>
      </trkpt>
      <trkpt lat="44.2485" lon="6.22778">
        <ele>1596.89</ele>
        <time>2016-02-15T12:25:31Z</time>
      </trkpt>
      <trkpt lat="44.24846" lon="6.22767">
        <ele>1597.85</ele>
        <time>2016-02-15T12:25:46Z</time>
      </trkpt>
      <trkpt lat="44.24839" lon="6.22762">
        <ele>1597.85</ele>
        <time>2016-02-15T12:26:02Z</time>
      </trkpt>
      <trkpt lat="44.24839" lon="6.22763">
        <ele>1598.33</ele>
        <time>2016-02-15T12:26:28Z</time>
      </trkpt>
      <trkpt lat="44.2484" lon="6.22762">
        <ele>1598.81</ele>
        <time>2016-02-15T12:27:02Z</time>
      </trkpt>
      <trkpt lat="44.24841" lon="6.22761">
        <ele>1598.81</ele>
        <time>2016-02-15T12:27:46Z</time>
      </trkpt>
      <trkpt lat="44.2484" lon="6.22756">
        <ele>1599.77</ele>
        <time>2016-02-15T12:28:00Z</time>
      </trkpt>
      <trkpt lat="44.24839" lon="6.22751">
        <ele>1599.29</ele>
        <time>2016-02-15T12:28:28Z</time>
      </trkpt>
      <trkpt lat="44.24838" lon="6.2273">
        <ele>1599.29</ele>
        <time>2016-02-15T12:28:45Z</time>
      </trkpt>
      <trkpt lat="44.24837" lon="6.22723">
        <ele>1600.73</ele>
        <time>2016-02-15T12:28:51Z</time>
      </trkpt>
      <trkpt lat="44.24836" lon="6.22705">
        <ele>1600.73</ele>
        <time>2016-02-15T12:29:06Z</time>
      </trkpt>
      <trkpt lat="44.24833" lon="6.22688">
        <ele>1601.21</ele>
        <time>2016-02-15T12:29:21Z</time>
      </trkpt>
      <trkpt lat="44.24825" lon="6.22671">
        <ele>1601.69</ele>
        <time>2016-02-15T12:29:37Z</time>
      </trkpt>
      <trkpt lat="44.24817" lon="6.2266">
        <ele>1601.69</ele>
        <time>2016-02-15T12:29:50Z</time>
      </trkpt>
      <trkpt lat="44.24805" lon="6.22653">
        <ele>1602.66</ele>
        <time>2016-02-15T12:30:06Z</time>
      </trkpt>
      <trkpt lat="44.24795" lon="6.22649">
        <ele>1602.66</ele>
        <time>2016-02-15T12:30:17Z</time>
      </trkpt>
      <trkpt lat="44.24785" lon="6.22635">
        <ele>1602.66</ele>
        <time>2016-02-15T12:30:33Z</time>
      </trkpt>
      <trkpt lat="44.24775" lon="6.22623">
        <ele>1603.62</ele>
        <time>2016-02-15T12:30:49Z</time>
      </trkpt>
      <trkpt lat="44.24765" lon="6.22614">
        <ele>1605.54</ele>
        <time>2016-02-15T12:31:07Z</time>
      </trkpt>
      <trkpt lat="44.24756" lon="6.22606">
        <ele>1606.5</ele>
        <time>2016-02-15T12:31:23Z</time>
      </trkpt>
      <trkpt lat="44.24748" lon="6.22598">
        <ele>1607.46</ele>
        <time>2016-02-15T12:31:39Z</time>
      </trkpt>
      <trkpt lat="44.24739" lon="6.22589">
        <ele>1607.94</ele>
        <time>2016-02-15T12:31:55Z</time>
      </trkpt>
      <trkpt lat="44.24734" lon="6.22583">
        <ele>1608.9</ele>
        <time>2016-02-15T12:32:13Z</time>
      </trkpt>
      <trkpt lat="44.24726" lon="6.22575">
        <ele>1608.9</ele>
        <time>2016-02-15T12:32:33Z</time>
      </trkpt>
      <trkpt lat="44.24712" lon="6.22561">
        <ele>1609.86</ele>
        <time>2016-02-15T12:32:53Z</time>
      </trkpt>
      <trkpt lat="44.24702" lon="6.22548">
        <ele>1611.79</ele>
        <time>2016-02-15T12:33:11Z</time>
      </trkpt>
      <trkpt lat="44.24696" lon="6.22537">
        <ele>1612.75</ele>
        <time>2016-02-15T12:33:26Z</time>
      </trkpt>
      <trkpt lat="44.2469" lon="6.22529">
        <ele>1614.67</ele>
        <time>2016-02-15T12:33:47Z</time>
      </trkpt>
      <trkpt lat="44.24687" lon="6.2252">
        <ele>1616.59</ele>
        <time>2016-02-15T12:34:03Z</time>
      </trkpt>
      <trkpt lat="44.24679" lon="6.22509">
        <ele>1619.48</ele>
        <time>2016-02-15T12:34:21Z</time>
      </trkpt>
      <trkpt lat="44.24672" lon="6.22498">
        <ele>1622.36</ele>
        <time>2016-02-15T12:34:39Z</time>
      </trkpt>
      <trkpt lat="44.24669" lon="6.22485">
        <ele>1623.32</ele>
        <time>2016-02-15T12:34:55Z</time>
      </trkpt>
      <trkpt lat="44.24665" lon="6.22478">
        <ele>1625.25</ele>
        <time>2016-02-15T12:35:13Z</time>
      </trkpt>
      <trkpt lat="44.2466" lon="6.22464">
        <ele>1627.17</ele>
        <time>2016-02-15T12:35:30Z</time>
      </trkpt>
      <trkpt lat="44.2466" lon="6.22465">
        <ele>1625.73</ele>
        <time>2016-02-15T12:35:52Z</time>
      </trkpt>
      <trkpt lat="44.24659" lon="6.22464">
        <ele>1627.17</ele>
        <time>2016-02-15T12:36:02Z</time>
      </trkpt>
      <trkpt lat="44.2466" lon="6.22464">
        <ele>1627.17</ele>
        <time>2016-02-15T12:36:28Z</time>
      </trkpt>
      <trkpt lat="44.24659" lon="6.22463">
        <ele>1626.21</ele>
        <time>2016-02-15T12:36:58Z</time>
      </trkpt>
      <trkpt lat="44.2466" lon="6.22462">
        <ele>1625.73</ele>
        <time>2016-02-15T12:37:30Z</time>
      </trkpt>
      <trkpt lat="44.24661" lon="6.22465">
        <ele>1626.21</ele>
        <time>2016-02-15T12:38:00Z</time>
      </trkpt>
      <trkpt lat="44.24661" lon="6.22465">
        <ele>1628.13</ele>
        <time>2016-02-15T12:38:22Z</time>
      </trkpt>
      <trkpt lat="44.24661" lon="6.22464">
        <ele>1626.69</ele>
        <time>2016-02-15T12:38:30Z</time>
      </trkpt>
      <trkpt lat="44.2466" lon="6.22463">
        <ele>1626.21</ele>
        <time>2016-02-15T12:38:38Z</time>
      </trkpt>
      <trkpt lat="44.24659" lon="6.22449">
        <ele>1627.65</ele>
        <time>2016-02-15T12:38:48Z</time>
      </trkpt>
      <trkpt lat="44.24659" lon="6.22432">
        <ele>1626.21</ele>
        <time>2016-02-15T12:39:03Z</time>
      </trkpt>
      <trkpt lat="44.24658" lon="6.2243">
        <ele>1627.65</ele>
        <time>2016-02-15T12:39:05Z</time>
      </trkpt>
      <trkpt lat="44.24657" lon="6.22419">
        <ele>1627.65</ele>
        <time>2016-02-15T12:39:19Z</time>
      </trkpt>
      <trkpt lat="44.24656" lon="6.2242">
        <ele>1627.65</ele>
        <time>2016-02-15T12:39:27Z</time>
      </trkpt>
      <trkpt lat="44.24651" lon="6.22422">
        <ele>1627.65</ele>
        <time>2016-02-15T12:39:33Z</time>
      </trkpt>
      <trkpt lat="44.24643" lon="6.22412">
        <ele>1628.13</ele>
        <time>2016-02-15T12:39:48Z</time>
      </trkpt>
      <trkpt lat="44.24642" lon="6.22407">
        <ele>1626.69</ele>
        <time>2016-02-15T12:40:02Z</time>
      </trkpt>
      <trkpt lat="44.24641" lon="6.22392">
        <ele>1624.28</ele>
        <time>2016-02-15T12:40:17Z</time>
      </trkpt>
      <trkpt lat="44.24641" lon="6.22379">
        <ele>1624.28</ele>
        <time>2016-02-15T12:40:31Z</time>
      </trkpt>
      <trkpt lat="44.24642" lon="6.22371">
        <ele>1622.84</ele>
        <time>2016-02-15T12:40:46Z</time>
      </trkpt>
      <trkpt lat="44.24639" lon="6.2237">
        <ele>1622.36</ele>
        <time>2016-02-15T12:41:12Z</time>
      </trkpt>
      <trkpt lat="44.2464" lon="6.22369">
        <ele>1622.36</ele>
        <time>2016-02-15T12:41:13Z</time>
      </trkpt>
      <trkpt lat="44.24641" lon="6.22356">
        <ele>1621.88</ele>
        <time>2016-02-15T12:41:28Z</time>
      </trkpt>
      <trkpt lat="44.2464" lon="6.22341">
        <ele>1621.88</ele>
        <time>2016-02-15T12:41:44Z</time>
      </trkpt>
      <trkpt lat="44.24639" lon="6.22327">
        <ele>1623.32</ele>
        <time>2016-02-15T12:41:59Z</time>
      </trkpt>
      <trkpt lat="44.24637" lon="6.22309">
        <ele>1624.28</ele>
        <time>2016-02-15T12:42:16Z</time>
      </trkpt>
      <trkpt lat="44.24636" lon="6.2229">
        <ele>1625.25</ele>
        <time>2016-02-15T12:42:36Z</time>
      </trkpt>
      <trkpt lat="44.24636" lon="6.22279">
        <ele>1626.21</ele>
        <time>2016-02-15T12:42:52Z</time>
      </trkpt>
      <trkpt lat="44.24633" lon="6.22274">
        <ele>1625.73</ele>
        <time>2016-02-15T12:43:08Z</time>
      </trkpt>
      <trkpt lat="44.24629" lon="6.22253">
        <ele>1625.73</ele>
        <time>2016-02-15T12:43:26Z</time>
      </trkpt>
      <trkpt lat="44.24625" lon="6.22236">
        <ele>1625.73</ele>
        <time>2016-02-15T12:43:43Z</time>
      </trkpt>
      <trkpt lat="44.24619" lon="6.22221">
        <ele>1626.69</ele>
        <time>2016-02-15T12:43:59Z</time>
      </trkpt>
      <trkpt lat="44.24614" lon="6.2221">
        <ele>1627.65</ele>
        <time>2016-02-15T12:44:14Z</time>
      </trkpt>
      <trkpt lat="44.24614" lon="6.2221">
        <ele>1628.13</ele>
        <time>2016-02-15T12:44:48Z</time>
      </trkpt>
      <trkpt lat="44.2461" lon="6.22204">
        <ele>1628.13</ele>
        <time>2016-02-15T12:45:11Z</time>
      </trkpt>
      <trkpt lat="44.24612" lon="6.22214">
        <ele>1628.13</ele>
        <time>2016-02-15T12:45:45Z</time>
      </trkpt>
      <trkpt lat="44.24616" lon="6.22212">
        <ele>1628.13</ele>
        <time>2016-02-15T12:46:19Z</time>
      </trkpt>
      <trkpt lat="44.24616" lon="6.22207">
        <ele>1626.69</ele>
        <time>2016-02-15T12:47:01Z</time>
      </trkpt>
      <trkpt lat="44.24618" lon="6.22207">
        <ele>1626.21</ele>
        <time>2016-02-15T12:47:36Z</time>
      </trkpt>
      <trkpt lat="44.24614" lon="6.22197">
        <ele>1627.65</ele>
        <time>2016-02-15T12:47:49Z</time>
      </trkpt>
      <trkpt lat="44.24613" lon="6.22182">
        <ele>1626.69</ele>
        <time>2016-02-15T12:48:05Z</time>
      </trkpt>
      <trkpt lat="44.24616" lon="6.22171">
        <ele>1626.69</ele>
        <time>2016-02-15T12:48:21Z</time>
      </trkpt>
      <trkpt lat="44.24617" lon="6.22165">
        <ele>1626.69</ele>
        <time>2016-02-15T12:48:27Z</time>
      </trkpt>
      <trkpt lat="44.24611" lon="6.22156">
        <ele>1628.61</ele>
        <time>2016-02-15T12:48:44Z</time>
      </trkpt>
      <trkpt lat="44.24606" lon="6.22145">
        <ele>1629.57</ele>
        <time>2016-02-15T12:48:59Z</time>
      </trkpt>
      <trkpt lat="44.24609" lon="6.22128">
        <ele>1628.13</ele>
        <time>2016-02-15T12:49:18Z</time>
      </trkpt>
      <trkpt lat="44.24612" lon="6.22121">
        <ele>1629.09</ele>
        <time>2016-02-15T12:49:28Z</time>
      </trkpt>
      <trkpt lat="44.24616" lon="6.22109">
        <ele>1631.01</ele>
        <time>2016-02-15T12:49:43Z</time>
      </trkpt>
      <trkpt lat="44.24616" lon="6.22109">
        <ele>1631.49</ele>
        <time>2016-02-15T12:50:17Z</time>
      </trkpt>
      <trkpt lat="44.24613" lon="6.22105">
        <ele>1631.98</ele>
        <time>2016-02-15T12:50:52Z</time>
      </trkpt>
      <trkpt lat="44.24613" lon="6.22105">
        <ele>1630.53</ele>
        <time>2016-02-15T12:50:57Z</time>
      </trkpt>
      <trkpt lat="44.24618" lon="6.22102">
        <ele>1630.53</ele>
        <time>2016-02-15T12:51:18Z</time>
      </trkpt>
      <trkpt lat="44.2462" lon="6.22102">
        <ele>1631.98</ele>
        <time>2016-02-15T12:51:20Z</time>
      </trkpt>
      <trkpt lat="44.24627" lon="6.22099">
        <ele>1632.94</ele>
        <time>2016-02-15T12:51:33Z</time>
      </trkpt>
      <trkpt lat="44.24627" lon="6.22093">
        <ele>1632.94</ele>
        <time>2016-02-15T12:51:48Z</time>
      </trkpt>
      <trkpt lat="44.24634" lon="6.22082">
        <ele>1635.34</ele>
        <time>2016-02-15T12:52:04Z</time>
      </trkpt>
      <trkpt lat="44.24637" lon="6.22069">
        <ele>1637.74</ele>
        <time>2016-02-15T12:52:19Z</time>
      </trkpt>
      <trkpt lat="44.24641" lon="6.22051">
        <ele>1638.7</ele>
        <time>2016-02-15T12:52:37Z</time>
      </trkpt>
      <trkpt lat="44.24644" lon="6.22037">
        <ele>1639.67</ele>
        <time>2016-02-15T12:52:54Z</time>
      </trkpt>
      <trkpt lat="44.24646" lon="6.22021">
        <ele>1640.63</ele>
        <time>2016-02-15T12:53:12Z</time>
      </trkpt>
      <trkpt lat="44.24646" lon="6.22006">
        <ele>1642.55</ele>
        <time>2016-02-15T12:53:29Z</time>
      </trkpt>
      <trkpt lat="44.24647" lon="6.22">
        <ele>1643.51</ele>
        <time>2016-02-15T12:53:45Z</time>
      </trkpt>
      <trkpt lat="44.2465" lon="6.21986">
        <ele>1645.43</ele>
        <time>2016-02-15T12:54:02Z</time>
      </trkpt>
      <trkpt lat="44.2465" lon="6.21972">
        <ele>1646.88</ele>
        <time>2016-02-15T12:54:17Z</time>
      </trkpt>
      <trkpt lat="44.24651" lon="6.21969">
        <ele>1646.88</ele>
        <time>2016-02-15T12:54:39Z</time>
      </trkpt>
      <trkpt lat="44.2466" lon="6.21955">
        <ele>1647.84</ele>
        <time>2016-02-15T12:54:57Z</time>
      </trkpt>
      <trkpt lat="44.24666" lon="6.21942">
        <ele>1650.24</ele>
        <time>2016-02-15T12:55:13Z</time>
      </trkpt>
      <trkpt lat="44.24668" lon="6.2193">
        <ele>1650.72</ele>
        <time>2016-02-15T12:55:28Z</time>
      </trkpt>
      <trkpt lat="44.24668" lon="6.21928">
        <ele>1652.64</ele>
        <time>2016-02-15T12:55:45Z</time>
      </trkpt>
      <trkpt lat="44.24666" lon="6.21929">
        <ele>1652.64</ele>
        <time>2016-02-15T12:56:06Z</time>
      </trkpt>
      <trkpt lat="44.24668" lon="6.2193">
        <ele>1652.64</ele>
        <time>2016-02-15T12:56:19Z</time>
      </trkpt>
      <trkpt lat="44.24669" lon="6.21929">
        <ele>1652.64</ele>
        <time>2016-02-15T12:56:32Z</time>
      </trkpt>
      <trkpt lat="44.24669" lon="6.21931">
        <ele>1652.64</ele>
        <time>2016-02-15T12:56:46Z</time>
      </trkpt>
      <trkpt lat="44.24668" lon="6.21928">
        <ele>1651.2</ele>
        <time>2016-02-15T12:57:08Z</time>
      </trkpt>
      <trkpt lat="44.24667" lon="6.21922">
        <ele>1651.68</ele>
        <time>2016-02-15T12:57:28Z</time>
      </trkpt>
      <trkpt lat="44.24669" lon="6.21928">
        <ele>1651.68</ele>
        <time>2016-02-15T12:57:50Z</time>
      </trkpt>
      <trkpt lat="44.24671" lon="6.21929">
        <ele>1651.2</ele>
        <time>2016-02-15T12:58:04Z</time>
      </trkpt>
      <trkpt lat="44.24673" lon="6.21931">
        <ele>1650.72</ele>
        <time>2016-02-15T12:58:28Z</time>
      </trkpt>
      <trkpt lat="44.24668" lon="6.21919">
        <ele>1649.76</ele>
        <time>2016-02-15T12:58:50Z</time>
      </trkpt>
      <trkpt lat="44.2466" lon="6.21907">
        <ele>1647.84</ele>
        <time>2016-02-15T12:59:06Z</time>
      </trkpt>
      <trkpt lat="44.2466" lon="6.21901">
        <ele>1646.4</ele>
        <time>2016-02-15T12:59:26Z</time>
      </trkpt>
      <trkpt lat="44.24657" lon="6.21903">
        <ele>1645.43</ele>
        <time>2016-02-15T12:59:48Z</time>
      </trkpt>
      <trkpt lat="44.24655" lon="6.219">
        <ele>1643.51</ele>
        <time>2016-02-15T13:00:01Z</time>
      </trkpt>
      <trkpt lat="44.24657" lon="6.2189">
        <ele>1642.55</ele>
        <time>2016-02-15T13:00:13Z</time>
      </trkpt>
      <trkpt lat="44.24657" lon="6.2188">
        <ele>1643.03</ele>
        <time>2016-02-15T13:00:26Z</time>
      </trkpt>
      <trkpt lat="44.24654" lon="6.2187">
        <ele>1643.03</ele>
        <time>2016-02-15T13:00:51Z</time>
      </trkpt>
      <trkpt lat="44.24653" lon="6.21867">
        <ele>1643.99</ele>
        <time>2016-02-15T13:01:09Z</time>
      </trkpt>
      <trkpt lat="44.24651" lon="6.2186">
        <ele>1643.99</ele>
        <time>2016-02-15T13:01:25Z</time>
      </trkpt>
      <trkpt lat="44.24659" lon="6.21854">
        <ele>1645.43</ele>
        <time>2016-02-15T13:01:38Z</time>
      </trkpt>
      <trkpt lat="44.24661" lon="6.21847">
        <ele>1645.91</ele>
        <time>2016-02-15T13:01:51Z</time>
      </trkpt>
      <trkpt lat="44.24659" lon="6.21843">
        <ele>1645.91</ele>
        <time>2016-02-15T13:02:06Z</time>
      </trkpt>
      <trkpt lat="44.24662" lon="6.21844">
        <ele>1646.4</ele>
        <time>2016-02-15T13:02:41Z</time>
      </trkpt>
      <trkpt lat="44.2467" lon="6.21831">
        <ele>1647.36</ele>
        <time>2016-02-15T13:02:58Z</time>
      </trkpt>
      <trkpt lat="44.24674" lon="6.2182">
        <ele>1648.8</ele>
        <time>2016-02-15T13:03:13Z</time>
      </trkpt>
      <trkpt lat="44.24677" lon="6.21812">
        <ele>1649.76</ele>
        <time>2016-02-15T13:03:29Z</time>
      </trkpt>
      <trkpt lat="44.24675" lon="6.21805">
        <ele>1651.2</ele>
        <time>2016-02-15T13:03:46Z</time>
      </trkpt>
      <trkpt lat="44.24677" lon="6.21807">
        <ele>1651.68</ele>
        <time>2016-02-15T13:04:05Z</time>
      </trkpt>
      <trkpt lat="44.24678" lon="6.21807">
        <ele>1652.16</ele>
        <time>2016-02-15T13:04:24Z</time>
      </trkpt>
      <trkpt lat="44.24674" lon="6.21803">
        <ele>1652.16</ele>
        <time>2016-02-15T13:04:44Z</time>
      </trkpt>
      <trkpt lat="44.24672" lon="6.21803">
        <ele>1652.16</ele>
        <time>2016-02-15T13:05:08Z</time>
      </trkpt>
      <trkpt lat="44.24665" lon="6.21804">
        <ele>1652.16</ele>
        <time>2016-02-15T13:05:21Z</time>
      </trkpt>
      <trkpt lat="44.24662" lon="6.21795">
        <ele>1653.12</ele>
        <time>2016-02-15T13:05:34Z</time>
      </trkpt>
      <trkpt lat="44.2466" lon="6.21782">
        <ele>1654.09</ele>
        <time>2016-02-15T13:05:49Z</time>
      </trkpt>
      <trkpt lat="44.2466" lon="6.21772">
        <ele>1655.53</ele>
        <time>2016-02-15T13:06:05Z</time>
      </trkpt>
      <trkpt lat="44.24662" lon="6.21763">
        <ele>1656.49</ele>
        <time>2016-02-15T13:06:20Z</time>
      </trkpt>
      <trkpt lat="44.24668" lon="6.21753">
        <ele>1658.89</ele>
        <time>2016-02-15T13:06:36Z</time>
      </trkpt>
      <trkpt lat="44.24674" lon="6.21746">
        <ele>1660.33</ele>
        <time>2016-02-15T13:06:52Z</time>
      </trkpt>
      <trkpt lat="44.24677" lon="6.21735">
        <ele>1662.74</ele>
        <time>2016-02-15T13:07:06Z</time>
      </trkpt>
      <trkpt lat="44.24676" lon="6.2173">
        <ele>1663.22</ele>
        <time>2016-02-15T13:07:20Z</time>
      </trkpt>
      <trkpt lat="44.24672" lon="6.21729">
        <ele>1663.22</ele>
        <time>2016-02-15T13:07:50Z</time>
      </trkpt>
      <trkpt lat="44.24673" lon="6.21731">
        <ele>1662.26</ele>
        <time>2016-02-15T13:08:13Z</time>
      </trkpt>
      <trkpt lat="44.24674" lon="6.2173">
        <ele>1663.7</ele>
        <time>2016-02-15T13:08:31Z</time>
      </trkpt>
      <trkpt lat="44.24674" lon="6.21728">
        <ele>1663.22</ele>
        <time>2016-02-15T13:08:42Z</time>
      </trkpt>
      <trkpt lat="44.24675" lon="6.2173">
        <ele>1663.7</ele>
        <time>2016-02-15T13:08:50Z</time>
      </trkpt>
      <trkpt lat="44.24675" lon="6.21727">
        <ele>1663.7</ele>
        <time>2016-02-15T13:09:18Z</time>
      </trkpt>
      <trkpt lat="44.24675" lon="6.21728">
        <ele>1662.26</ele>
        <time>2016-02-15T13:09:26Z</time>
      </trkpt>
      <trkpt lat="44.24676" lon="6.2173">
        <ele>1663.7</ele>
        <time>2016-02-15T13:09:46Z</time>
      </trkpt>
      <trkpt lat="44.24676" lon="6.2173">
        <ele>1662.26</ele>
        <time>2016-02-15T13:09:55Z</time>
      </trkpt>
      <trkpt lat="44.24675" lon="6.21729">
        <ele>1664.18</ele>
        <time>2016-02-15T13:09:58Z</time>
      </trkpt>
      <trkpt lat="44.24676" lon="6.2173">
        <ele>1662.74</ele>
        <time>2016-02-15T13:10:09Z</time>
      </trkpt>
      <trkpt lat="44.24676" lon="6.21729">
        <ele>1666.58</ele>
        <time>2016-02-15T13:10:22Z</time>
      </trkpt>
      <trkpt lat="44.24675" lon="6.21729">
        <ele>1666.58</ele>
        <time>2016-02-15T13:10:23Z</time>
      </trkpt>
      <trkpt lat="44.24676" lon="6.2173">
        <ele>1665.14</ele>
        <time>2016-02-15T13:10:27Z</time>
      </trkpt>
      <trkpt lat="44.24675" lon="6.2173">
        <ele>1665.14</ele>
        <time>2016-02-15T13:10:58Z</time>
      </trkpt>
      <trkpt lat="44.24678" lon="6.21731">
        <ele>1664.18</ele>
        <time>2016-02-15T13:11:27Z</time>
      </trkpt>
      <trkpt lat="44.24678" lon="6.21731">
        <ele>1665.62</ele>
        <time>2016-02-15T13:11:37Z</time>
      </trkpt>
      <trkpt lat="44.24675" lon="6.21732">
        <ele>1666.1</ele>
        <time>2016-02-15T13:12:21Z</time>
      </trkpt>
      <trkpt lat="44.24675" lon="6.21732">
        <ele>1664.66</ele>
        <time>2016-02-15T13:12:25Z</time>
      </trkpt>
      <trkpt lat="44.24676" lon="6.21731">
        <ele>1665.62</ele>
        <time>2016-02-15T13:12:35Z</time>
      </trkpt>
      <trkpt lat="44.24677" lon="6.21731">
        <ele>1665.14</ele>
        <time>2016-02-15T13:12:52Z</time>
      </trkpt>
      <trkpt lat="44.24676" lon="6.21732">
        <ele>1665.14</ele>
        <time>2016-02-15T13:13:33Z</time>
      </trkpt>
      <trkpt lat="44.24675" lon="6.21732">
        <ele>1666.1</ele>
        <time>2016-02-15T13:13:41Z</time>
      </trkpt>
      <trkpt lat="44.24675" lon="6.21732">
        <ele>1665.62</ele>
        <time>2016-02-15T13:14:09Z</time>
      </trkpt>
      <trkpt lat="44.24674" lon="6.2173">
        <ele>1665.62</ele>
        <time>2016-02-15T13:14:29Z</time>
      </trkpt>
      <trkpt lat="44.24669" lon="6.2173">
        <ele>1667.54</ele>
        <time>2016-02-15T13:14:37Z</time>
      </trkpt>
      <trkpt lat="44.24661" lon="6.21731">
        <ele>1669.47</ele>
        <time>2016-02-15T13:14:55Z</time>
      </trkpt>
      <trkpt lat="44.24655" lon="6.21733">
        <ele>1671.87</ele>
        <time>2016-02-15T13:15:11Z</time>
      </trkpt>
      <trkpt lat="44.24649" lon="6.21732">
        <ele>1675.23</ele>
        <time>2016-02-15T13:15:28Z</time>
      </trkpt>
      <trkpt lat="44.24642" lon="6.21726">
        <ele>1676.2</ele>
        <time>2016-02-15T13:15:47Z</time>
      </trkpt>
      <trkpt lat="44.24637" lon="6.21723">
        <ele>1677.16</ele>
        <time>2016-02-15T13:16:03Z</time>
      </trkpt>
      <trkpt lat="44.24635" lon="6.21724">
        <ele>1676.68</ele>
        <time>2016-02-15T13:16:33Z</time>
      </trkpt>
      <trkpt lat="44.24634" lon="6.21719">
        <ele>1676.2</ele>
        <time>2016-02-15T13:17:02Z</time>
      </trkpt>
      <trkpt lat="44.24637" lon="6.21722">
        <ele>1676.2</ele>
        <time>2016-02-15T13:17:31Z</time>
      </trkpt>
      <trkpt lat="44.24637" lon="6.21723">
        <ele>1677.64</ele>
        <time>2016-02-15T13:17:52Z</time>
      </trkpt>
      <trkpt lat="44.24636" lon="6.21725">
        <ele>1675.72</ele>
        <time>2016-02-15T13:18:07Z</time>
      </trkpt>
      <trkpt lat="44.24643" lon="6.21731">
        <ele>1676.68</ele>
        <time>2016-02-15T13:18:24Z</time>
      </trkpt>
      <trkpt lat="44.24644" lon="6.21732">
        <ele>1675.23</ele>
        <time>2016-02-15T13:18:27Z</time>
      </trkpt>
      <trkpt lat="44.24646" lon="6.21733">
        <ele>1673.79</ele>
        <time>2016-02-15T13:18:31Z</time>
      </trkpt>
      <trkpt lat="44.24652" lon="6.21736">
        <ele>1672.83</ele>
        <time>2016-02-15T13:18:40Z</time>
      </trkpt>
      <trkpt lat="44.2466" lon="6.21735">
        <ele>1669.47</ele>
        <time>2016-02-15T13:18:54Z</time>
      </trkpt>
      <trkpt lat="44.24667" lon="6.21734">
        <ele>1666.58</ele>
        <time>2016-02-15T13:19:08Z</time>
      </trkpt>
      <trkpt lat="44.24671" lon="6.21734">
        <ele>1667.54</ele>
        <time>2016-02-15T13:19:27Z</time>
      </trkpt>
      <trkpt lat="44.24671" lon="6.21733">
        <ele>1666.1</ele>
        <time>2016-02-15T13:19:34Z</time>
      </trkpt>
      <trkpt lat="44.24672" lon="6.21734">
        <ele>1664.66</ele>
        <time>2016-02-15T13:20:19Z</time>
      </trkpt>
      <trkpt lat="44.24672" lon="6.21734">
        <ele>1667.06</ele>
        <time>2016-02-15T13:20:22Z</time>
      </trkpt>
      <trkpt lat="44.24671" lon="6.21732">
        <ele>1666.58</ele>
        <time>2016-02-15T13:20:52Z</time>
      </trkpt>
      <trkpt lat="44.24669" lon="6.21735">
        <ele>1666.58</ele>
        <time>2016-02-15T13:21:13Z</time>
      </trkpt>
      <trkpt lat="44.24667" lon="6.21734">
        <ele>1667.06</ele>
        <time>2016-02-15T13:21:31Z</time>
      </trkpt>
      <trkpt lat="44.24666" lon="6.21733">
        <ele>1666.58</ele>
        <time>2016-02-15T13:22:01Z</time>
      </trkpt>
      <trkpt lat="44.24668" lon="6.21734">
        <ele>1665.14</ele>
        <time>2016-02-15T13:22:08Z</time>
      </trkpt>
      <trkpt lat="44.24668" lon="6.21733">
        <ele>1665.62</ele>
        <time>2016-02-15T13:22:31Z</time>
      </trkpt>
      <trkpt lat="44.24668" lon="6.21729">
        <ele>1666.1</ele>
        <time>2016-02-15T13:22:41Z</time>
      </trkpt>
      <trkpt lat="44.24669" lon="6.21728">
        <ele>1664.66</ele>
        <time>2016-02-15T13:22:50Z</time>
      </trkpt>
      <trkpt lat="44.24669" lon="6.21727">
        <ele>1666.1</ele>
        <time>2016-02-15T13:22:54Z</time>
      </trkpt>
      <trkpt lat="44.24673" lon="6.21728">
        <ele>1664.66</ele>
        <time>2016-02-15T13:23:14Z</time>
      </trkpt>
      <trkpt lat="44.24673" lon="6.21729">
        <ele>1663.22</ele>
        <time>2016-02-15T13:23:36Z</time>
      </trkpt>
      <trkpt lat="44.24678" lon="6.21724">
        <ele>1661.78</ele>
        <time>2016-02-15T13:23:53Z</time>
      </trkpt>
      <trkpt lat="44.24682" lon="6.21714">
        <ele>1662.26</ele>
        <time>2016-02-15T13:24:09Z</time>
      </trkpt>
      <trkpt lat="44.24683" lon="6.21712">
        <ele>1663.22</ele>
        <time>2016-02-15T13:24:41Z</time>
      </trkpt>
      <trkpt lat="44.24683" lon="6.21712">
        <ele>1663.22</ele>
        <time>2016-02-15T13:24:51Z</time>
      </trkpt>
      <trkpt lat="44.24679" lon="6.21711">
        <ele>1661.3</ele>
        <time>2016-02-15T13:25:02Z</time>
      </trkpt>
      <trkpt lat="44.24679" lon="6.21703">
        <ele>1659.37</ele>
        <time>2016-02-15T13:25:16Z</time>
      </trkpt>
      <trkpt lat="44.24681" lon="6.21701">
        <ele>1658.89</ele>
        <time>2016-02-15T13:25:32Z</time>
      </trkpt>
      <trkpt lat="44.24684" lon="6.21692">
        <ele>1657.45</ele>
        <time>2016-02-15T13:25:45Z</time>
      </trkpt>
      <trkpt lat="44.24687" lon="6.21685">
        <ele>1656.01</ele>
        <time>2016-02-15T13:25:54Z</time>
      </trkpt>
      <trkpt lat="44.24688" lon="6.21675">
        <ele>1655.53</ele>
        <time>2016-02-15T13:26:07Z</time>
      </trkpt>
      <trkpt lat="44.2469" lon="6.21663">
        <ele>1654.57</ele>
        <time>2016-02-15T13:26:22Z</time>
      </trkpt>
      <trkpt lat="44.24692" lon="6.21658">
        <ele>1654.09</ele>
        <time>2016-02-15T13:26:34Z</time>
      </trkpt>
      <trkpt lat="44.24698" lon="6.21647">
        <ele>1652.64</ele>
        <time>2016-02-15T13:26:47Z</time>
      </trkpt>
      <trkpt lat="44.24699" lon="6.21642">
        <ele>1652.64</ele>
        <time>2016-02-15T13:27:00Z</time>
      </trkpt>
      <trkpt lat="44.247" lon="6.21634">
        <ele>1651.2</ele>
        <time>2016-02-15T13:27:13Z</time>
      </trkpt>
      <trkpt lat="44.247" lon="6.2163">
        <ele>1650.72</ele>
        <time>2016-02-15T13:27:17Z</time>
      </trkpt>
      <trkpt lat="44.24698" lon="6.21622">
        <ele>1650.24</ele>
        <time>2016-02-15T13:27:29Z</time>
      </trkpt>
      <trkpt lat="44.24697" lon="6.21615">
        <ele>1650.24</ele>
        <time>2016-02-15T13:27:45Z</time>
      </trkpt>
      <trkpt lat="44.24696" lon="6.21612">
        <ele>1649.28</ele>
        <time>2016-02-15T13:28:05Z</time>
      </trkpt>
      <trkpt lat="44.24696" lon="6.21603">
        <ele>1648.8</ele>
        <time>2016-02-15T13:28:17Z</time>
      </trkpt>
      <trkpt lat="44.24698" lon="6.21597">
        <ele>1648.32</ele>
        <time>2016-02-15T13:28:31Z</time>
      </trkpt>
      <trkpt lat="44.24698" lon="6.21595">
        <ele>1649.28</ele>
        <time>2016-02-15T13:28:44Z</time>
      </trkpt>
      <trkpt lat="44.24698" lon="6.21592">
        <ele>1648.32</ele>
        <time>2016-02-15T13:28:55Z</time>
      </trkpt>
      <trkpt lat="44.24704" lon="6.21588">
        <ele>1650.24</ele>
        <time>2016-02-15T13:29:10Z</time>
      </trkpt>
      <trkpt lat="44.24709" lon="6.21591">
        <ele>1651.2</ele>
        <time>2016-02-15T13:29:29Z</time>
      </trkpt>
      <trkpt lat="44.24713" lon="6.21599">
        <ele>1654.09</ele>
        <time>2016-02-15T13:29:46Z</time>
      </trkpt>
      <trkpt lat="44.24714" lon="6.21606">
        <ele>1655.05</ele>
        <time>2016-02-15T13:30:01Z</time>
      </trkpt>
      <trkpt lat="44.24719" lon="6.21609">
        <ele>1656.49</ele>
        <time>2016-02-15T13:30:16Z</time>
      </trkpt>
      <trkpt lat="44.24725" lon="6.21618">
        <ele>1659.37</ele>
        <time>2016-02-15T13:30:32Z</time>
      </trkpt>
      <trkpt lat="44.24732" lon="6.21628">
        <ele>1660.81</ele>
        <time>2016-02-15T13:30:49Z</time>
      </trkpt>
      <trkpt lat="44.24731" lon="6.21624">
        <ele>1661.78</ele>
        <time>2016-02-15T13:31:10Z</time>
      </trkpt>
      <trkpt lat="44.24733" lon="6.21626">
        <ele>1659.85</ele>
        <time>2016-02-15T13:31:32Z</time>
      </trkpt>
      <trkpt lat="44.24735" lon="6.21628">
        <ele>1661.78</ele>
        <time>2016-02-15T13:31:35Z</time>
      </trkpt>
      <trkpt lat="44.24743" lon="6.21633">
        <ele>1663.22</ele>
        <time>2016-02-15T13:31:53Z</time>
      </trkpt>
      <trkpt lat="44.24752" lon="6.21635">
        <ele>1664.66</ele>
        <time>2016-02-15T13:32:09Z</time>
      </trkpt>
      <trkpt lat="44.24756" lon="6.2164">
        <ele>1666.1</ele>
        <time>2016-02-15T13:32:24Z</time>
      </trkpt>
      <trkpt lat="44.24767" lon="6.21642">
        <ele>1666.1</ele>
        <time>2016-02-15T13:32:40Z</time>
      </trkpt>
      <trkpt lat="44.24779" lon="6.2164">
        <ele>1667.06</ele>
        <time>2016-02-15T13:32:57Z</time>
      </trkpt>
      <trkpt lat="44.24783" lon="6.21642">
        <ele>1668.51</ele>
        <time>2016-02-15T13:33:03Z</time>
      </trkpt>
      <trkpt lat="44.24794" lon="6.21638">
        <ele>1669.47</ele>
        <time>2016-02-15T13:33:18Z</time>
      </trkpt>
      <trkpt lat="44.24802" lon="6.21637">
        <ele>1670.43</ele>
        <time>2016-02-15T13:33:33Z</time>
      </trkpt>
      <trkpt lat="44.2481" lon="6.21642">
        <ele>1673.31</ele>
        <time>2016-02-15T13:33:49Z</time>
      </trkpt>
      <trkpt lat="44.24817" lon="6.21649">
        <ele>1675.23</ele>
        <time>2016-02-15T13:34:06Z</time>
      </trkpt>
      <trkpt lat="44.2482" lon="6.21651">
        <ele>1675.72</ele>
        <time>2016-02-15T13:34:11Z</time>
      </trkpt>
      <trkpt lat="44.24824" lon="6.21655">
        <ele>1676.68</ele>
        <time>2016-02-15T13:34:20Z</time>
      </trkpt>
      <trkpt lat="44.24834" lon="6.21656">
        <ele>1678.12</ele>
        <time>2016-02-15T13:34:36Z</time>
      </trkpt>
      <trkpt lat="44.24838" lon="6.21655">
        <ele>1680.52</ele>
        <time>2016-02-15T13:34:50Z</time>
      </trkpt>
      <trkpt lat="44.24837" lon="6.21656">
        <ele>1678.6</ele>
        <time>2016-02-15T13:34:53Z</time>
      </trkpt>
      <trkpt lat="44.24845" lon="6.21658">
        <ele>1679.08</ele>
        <time>2016-02-15T13:35:15Z</time>
      </trkpt>
      <trkpt lat="44.24859" lon="6.21656">
        <ele>1679.56</ele>
        <time>2016-02-15T13:35:33Z</time>
      </trkpt>
      <trkpt lat="44.2486" lon="6.21656">
        <ele>1679.56</ele>
        <time>2016-02-15T13:35:34Z</time>
      </trkpt>
      <trkpt lat="44.24862" lon="6.21656">
        <ele>1681</ele>
        <time>2016-02-15T13:35:37Z</time>
      </trkpt>
      <trkpt lat="44.24873" lon="6.21654">
        <ele>1682.93</ele>
        <time>2016-02-15T13:35:53Z</time>
      </trkpt>
      <trkpt lat="44.24884" lon="6.21649">
        <ele>1683.89</ele>
        <time>2016-02-15T13:36:11Z</time>
      </trkpt>
      <trkpt lat="44.24889" lon="6.21647">
        <ele>1684.37</ele>
        <time>2016-02-15T13:36:18Z</time>
      </trkpt>
      <trkpt lat="44.24891" lon="6.21647">
        <ele>1685.81</ele>
        <time>2016-02-15T13:36:37Z</time>
      </trkpt>
      <trkpt lat="44.24892" lon="6.21644">
        <ele>1685.81</ele>
        <time>2016-02-15T13:37:02Z</time>
      </trkpt>
      <trkpt lat="44.24899" lon="6.21643">
        <ele>1685.33</ele>
        <time>2016-02-15T13:37:13Z</time>
      </trkpt>
      <trkpt lat="44.24901" lon="6.21643">
        <ele>1687.25</ele>
        <time>2016-02-15T13:37:16Z</time>
      </trkpt>
      <trkpt lat="44.24911" lon="6.21644">
        <ele>1690.14</ele>
        <time>2016-02-15T13:37:32Z</time>
      </trkpt>
      <trkpt lat="44.24915" lon="6.21647">
        <ele>1691.58</ele>
        <time>2016-02-15T13:37:40Z</time>
      </trkpt>
      <trkpt lat="44.24921" lon="6.21656">
        <ele>1692.54</ele>
        <time>2016-02-15T13:37:57Z</time>
      </trkpt>
      <trkpt lat="44.24925" lon="6.2166">
        <ele>1694.46</ele>
        <time>2016-02-15T13:38:16Z</time>
      </trkpt>
      <trkpt lat="44.24931" lon="6.21661">
        <ele>1696.38</ele>
        <time>2016-02-15T13:38:33Z</time>
      </trkpt>
      <trkpt lat="44.2493" lon="6.2166">
        <ele>1696.86</ele>
        <time>2016-02-15T13:39:08Z</time>
      </trkpt>
      <trkpt lat="44.24932" lon="6.2166">
        <ele>1696.86</ele>
        <time>2016-02-15T13:39:35Z</time>
      </trkpt>
      <trkpt lat="44.24928" lon="6.21665">
        <ele>1695.42</ele>
        <time>2016-02-15T13:39:55Z</time>
      </trkpt>
      <trkpt lat="44.24928" lon="6.21667">
        <ele>1695.42</ele>
        <time>2016-02-15T13:39:56Z</time>
      </trkpt>
      <trkpt lat="44.24928" lon="6.21676">
        <ele>1695.42</ele>
        <time>2016-02-15T13:40:11Z</time>
      </trkpt>
      <trkpt lat="44.2493" lon="6.21684">
        <ele>1695.42</ele>
        <time>2016-02-15T13:40:30Z</time>
      </trkpt>
      <trkpt lat="44.2493" lon="6.21696">
        <ele>1695.42</ele>
        <time>2016-02-15T13:40:55Z</time>
      </trkpt>
      <trkpt lat="44.24928" lon="6.21682">
        <ele>1694.94</ele>
        <time>2016-02-15T13:41:21Z</time>
      </trkpt>
      <trkpt lat="44.2493" lon="6.2168">
        <ele>1694.94</ele>
        <time>2016-02-15T13:41:52Z</time>
      </trkpt>
      <trkpt lat="44.24931" lon="6.21683">
        <ele>1694.94</ele>
        <time>2016-02-15T13:42:19Z</time>
      </trkpt>
      <trkpt lat="44.24933" lon="6.2168">
        <ele>1693.98</ele>
        <time>2016-02-15T13:42:51Z</time>
      </trkpt>
      <trkpt lat="44.2492" lon="6.21684">
        <ele>1693.5</ele>
        <time>2016-02-15T13:43:16Z</time>
      </trkpt>
      <trkpt lat="44.24927" lon="6.21677">
        <ele>1692.54</ele>
        <time>2016-02-15T13:43:46Z</time>
      </trkpt>
      <trkpt lat="44.24927" lon="6.21683">
        <ele>1692.06</ele>
        <time>2016-02-15T13:44:15Z</time>
      </trkpt>
      <trkpt lat="44.24933" lon="6.2168">
        <ele>1692.06</ele>
        <time>2016-02-15T13:44:30Z</time>
      </trkpt>
      <trkpt lat="44.24935" lon="6.21677">
        <ele>1692.06</ele>
        <time>2016-02-15T13:44:33Z</time>
      </trkpt>
      <trkpt lat="44.24937" lon="6.21677">
        <ele>1693.5</ele>
        <time>2016-02-15T13:44:35Z</time>
      </trkpt>
      <trkpt lat="44.2494" lon="6.21678">
        <ele>1693.5</ele>
        <time>2016-02-15T13:44:53Z</time>
      </trkpt>
      <trkpt lat="44.24941" lon="6.21676">
        <ele>1692.06</ele>
        <time>2016-02-15T13:45:04Z</time>
      </trkpt>
      <trkpt lat="44.2493" lon="6.21679">
        <ele>1692.06</ele>
        <time>2016-02-15T13:45:27Z</time>
      </trkpt>
      <trkpt lat="44.24933" lon="6.21687">
        <ele>1691.58</ele>
        <time>2016-02-15T13:45:56Z</time>
      </trkpt>
      <trkpt lat="44.24935" lon="6.21684">
        <ele>1691.58</ele>
        <time>2016-02-15T13:46:20Z</time>
      </trkpt>
      <trkpt lat="44.24939" lon="6.21687">
        <ele>1692.06</ele>
        <time>2016-02-15T13:46:38Z</time>
      </trkpt>
      <trkpt lat="44.24941" lon="6.21682">
        <ele>1692.06</ele>
        <time>2016-02-15T13:47:05Z</time>
      </trkpt>
      <trkpt lat="44.24945" lon="6.2168">
        <ele>1692.06</ele>
        <time>2016-02-15T13:47:41Z</time>
      </trkpt>
      <trkpt lat="44.2494" lon="6.21685">
        <ele>1691.58</ele>
        <time>2016-02-15T13:48:04Z</time>
      </trkpt>
      <trkpt lat="44.24933" lon="6.21684">
        <ele>1691.58</ele>
        <time>2016-02-15T13:48:33Z</time>
      </trkpt>
      <trkpt lat="44.24925" lon="6.21679">
        <ele>1691.1</ele>
        <time>2016-02-15T13:49:03Z</time>
      </trkpt>
      <trkpt lat="44.24934" lon="6.21673">
        <ele>1691.1</ele>
        <time>2016-02-15T13:49:29Z</time>
      </trkpt>
      <trkpt lat="44.2493" lon="6.21668">
        <ele>1691.1</ele>
        <time>2016-02-15T13:49:56Z</time>
      </trkpt>
      <trkpt lat="44.24929" lon="6.2167">
        <ele>1691.1</ele>
        <time>2016-02-15T13:50:23Z</time>
      </trkpt>
      <trkpt lat="44.24934" lon="6.21665">
        <ele>1691.1</ele>
        <time>2016-02-15T13:50:47Z</time>
      </trkpt>
      <trkpt lat="44.2493" lon="6.21682">
        <ele>1690.14</ele>
        <time>2016-02-15T13:51:09Z</time>
      </trkpt>
      <trkpt lat="44.24931" lon="6.21686">
        <ele>1690.14</ele>
        <time>2016-02-15T13:51:29Z</time>
      </trkpt>
      <trkpt lat="44.24934" lon="6.21688">
        <ele>1690.62</ele>
        <time>2016-02-15T13:51:53Z</time>
      </trkpt>
      <trkpt lat="44.24937" lon="6.21684">
        <ele>1691.1</ele>
        <time>2016-02-15T13:52:18Z</time>
      </trkpt>
      <trkpt lat="44.24933" lon="6.21675">
        <ele>1691.1</ele>
        <time>2016-02-15T13:52:47Z</time>
      </trkpt>
      <trkpt lat="44.24931" lon="6.21675">
        <ele>1691.1</ele>
        <time>2016-02-15T13:53:15Z</time>
      </trkpt>
      <trkpt lat="44.24953" lon="6.21671">
        <ele>1691.58</ele>
        <time>2016-02-15T13:53:45Z</time>
      </trkpt>
      <trkpt lat="44.24942" lon="6.21673">
        <ele>1690.14</ele>
        <time>2016-02-15T13:53:52Z</time>
      </trkpt>
      <trkpt lat="44.24932" lon="6.21666">
        <ele>1690.14</ele>
        <time>2016-02-15T13:54:30Z</time>
      </trkpt>
      <trkpt lat="44.24938" lon="6.21675">
        <ele>1690.14</ele>
        <time>2016-02-15T13:54:57Z</time>
      </trkpt>
      <trkpt lat="44.24934" lon="6.21665">
        <ele>1689.65</ele>
        <time>2016-02-15T13:55:33Z</time>
      </trkpt>
      <trkpt lat="44.24932" lon="6.21662">
        <ele>1689.17</ele>
        <time>2016-02-15T13:56:11Z</time>
      </trkpt>
      <trkpt lat="44.24955" lon="6.2167">
        <ele>1689.17</ele>
        <time>2016-02-15T13:56:40Z</time>
      </trkpt>
      <trkpt lat="44.24945" lon="6.21663">
        <ele>1689.17</ele>
        <time>2016-02-15T13:57:19Z</time>
      </trkpt>
      <trkpt lat="44.24946" lon="6.21668">
        <ele>1689.17</ele>
        <time>2016-02-15T13:57:46Z</time>
      </trkpt>
      <trkpt lat="44.2495" lon="6.21667">
        <ele>1689.65</ele>
        <time>2016-02-15T13:58:17Z</time>
      </trkpt>
      <trkpt lat="44.2494" lon="6.21661">
        <ele>1689.17</ele>
        <time>2016-02-15T13:58:42Z</time>
      </trkpt>
      <trkpt lat="44.24935" lon="6.21659">
        <ele>1689.17</ele>
        <time>2016-02-15T13:59:08Z</time>
      </trkpt>
      <trkpt lat="44.24935" lon="6.21672">
        <ele>1689.17</ele>
        <time>2016-02-15T13:59:30Z</time>
      </trkpt>
      <trkpt lat="44.24934" lon="6.21677">
        <ele>1688.69</ele>
        <time>2016-02-15T13:59:47Z</time>
      </trkpt>
      <trkpt lat="44.24933" lon="6.21681">
        <ele>1688.21</ele>
        <time>2016-02-15T14:00:03Z</time>
      </trkpt>
      <trkpt lat="44.24938" lon="6.21685">
        <ele>1689.65</ele>
        <time>2016-02-15T14:00:06Z</time>
      </trkpt>
      <trkpt lat="44.2494" lon="6.21683">
        <ele>1689.65</ele>
        <time>2016-02-15T14:00:31Z</time>
      </trkpt>
      <trkpt lat="44.24944" lon="6.21678">
        <ele>1689.65</ele>
        <time>2016-02-15T14:00:57Z</time>
      </trkpt>
      <trkpt lat="44.24944" lon="6.2167">
        <ele>1689.65</ele>
        <time>2016-02-15T14:01:27Z</time>
      </trkpt>
      <trkpt lat="44.24945" lon="6.21676">
        <ele>1689.65</ele>
        <time>2016-02-15T14:01:52Z</time>
      </trkpt>
      <trkpt lat="44.24929" lon="6.21669">
        <ele>1690.14</ele>
        <time>2016-02-15T14:02:20Z</time>
      </trkpt>
      <trkpt lat="44.24929" lon="6.21666">
        <ele>1689.17</ele>
        <time>2016-02-15T14:02:30Z</time>
      </trkpt>
      <trkpt lat="44.24925" lon="6.21661">
        <ele>1688.69</ele>
        <time>2016-02-15T14:02:45Z</time>
      </trkpt>
      <trkpt lat="44.24925" lon="6.21665">
        <ele>1688.21</ele>
        <time>2016-02-15T14:03:00Z</time>
      </trkpt>
      <trkpt lat="44.2493" lon="6.21665">
        <ele>1687.73</ele>
        <time>2016-02-15T14:03:25Z</time>
      </trkpt>
      <trkpt lat="44.2493" lon="6.21664">
        <ele>1687.73</ele>
        <time>2016-02-15T14:03:45Z</time>
      </trkpt>
      <trkpt lat="44.24928" lon="6.21667">
        <ele>1689.17</ele>
        <time>2016-02-15T14:04:10Z</time>
      </trkpt>
      <trkpt lat="44.24926" lon="6.21675">
        <ele>1687.73</ele>
        <time>2016-02-15T14:04:18Z</time>
      </trkpt>
      <trkpt lat="44.24924" lon="6.2169">
        <ele>1689.17</ele>
        <time>2016-02-15T14:04:33Z</time>
      </trkpt>
      <trkpt lat="44.24922" lon="6.21694">
        <ele>1690.14</ele>
        <time>2016-02-15T14:04:51Z</time>
      </trkpt>
      <trkpt lat="44.24921" lon="6.21691">
        <ele>1689.65</ele>
        <time>2016-02-15T14:05:24Z</time>
      </trkpt>
      <trkpt lat="44.2492" lon="6.21708">
        <ele>1691.58</ele>
        <time>2016-02-15T14:05:41Z</time>
      </trkpt>
      <trkpt lat="44.24924" lon="6.21712">
        <ele>1692.54</ele>
        <time>2016-02-15T14:06:03Z</time>
      </trkpt>
      <trkpt lat="44.2492" lon="6.21713">
        <ele>1691.1</ele>
        <time>2016-02-15T14:06:33Z</time>
      </trkpt>
      <trkpt lat="44.24925" lon="6.21715">
        <ele>1691.1</ele>
        <time>2016-02-15T14:07:06Z</time>
      </trkpt>
      <trkpt lat="44.24913" lon="6.2172">
        <ele>1691.1</ele>
        <time>2016-02-15T14:07:19Z</time>
      </trkpt>
      <trkpt lat="44.24913" lon="6.21729">
        <ele>1693.98</ele>
        <time>2016-02-15T14:07:33Z</time>
      </trkpt>
      <trkpt lat="44.24908" lon="6.21741">
        <ele>1695.9</ele>
        <time>2016-02-15T14:07:51Z</time>
      </trkpt>
      <trkpt lat="44.24913" lon="6.2175">
        <ele>1697.83</ele>
        <time>2016-02-15T14:08:04Z</time>
      </trkpt>
      <trkpt lat="44.24918" lon="6.21759">
        <ele>1698.79</ele>
        <time>2016-02-15T14:08:18Z</time>
      </trkpt>
      <trkpt lat="44.24924" lon="6.21764">
        <ele>1701.19</ele>
        <time>2016-02-15T14:08:35Z</time>
      </trkpt>
      <trkpt lat="44.2493" lon="6.2177">
        <ele>1704.07</ele>
        <time>2016-02-15T14:08:50Z</time>
      </trkpt>
      <trkpt lat="44.24932" lon="6.21785">
        <ele>1705.04</ele>
        <time>2016-02-15T14:09:05Z</time>
      </trkpt>
      <trkpt lat="44.2493" lon="6.21795">
        <ele>1706.48</ele>
        <time>2016-02-15T14:09:22Z</time>
      </trkpt>
      <trkpt lat="44.24926" lon="6.21807">
        <ele>1707.44</ele>
        <time>2016-02-15T14:09:38Z</time>
      </trkpt>
      <trkpt lat="44.24919" lon="6.21814">
        <ele>1709.36</ele>
        <time>2016-02-15T14:09:54Z</time>
      </trkpt>
      <trkpt lat="44.24915" lon="6.21821">
        <ele>1709.84</ele>
        <time>2016-02-15T14:10:15Z</time>
      </trkpt>
      <trkpt lat="44.24908" lon="6.21832">
        <ele>1712.25</ele>
        <time>2016-02-15T14:10:31Z</time>
      </trkpt>
      <trkpt lat="44.249" lon="6.21843">
        <ele>1713.69</ele>
        <time>2016-02-15T14:10:47Z</time>
      </trkpt>
      <trkpt lat="44.249" lon="6.21843">
        <ele>1713.21</ele>
        <time>2016-02-15T14:11:05Z</time>
      </trkpt>
      <trkpt lat="44.249" lon="6.21841">
        <ele>1714.65</ele>
        <time>2016-02-15T14:11:14Z</time>
      </trkpt>
      <trkpt lat="44.24896" lon="6.21848">
        <ele>1713.21</ele>
        <time>2016-02-15T14:11:29Z</time>
      </trkpt>
      <trkpt lat="44.24887" lon="6.2186">
        <ele>1714.65</ele>
        <time>2016-02-15T14:11:46Z</time>
      </trkpt>
      <trkpt lat="44.24886" lon="6.2186">
        <ele>1714.65</ele>
        <time>2016-02-15T14:11:47Z</time>
      </trkpt>
      <trkpt lat="44.24879" lon="6.21864">
        <ele>1716.09</ele>
        <time>2016-02-15T14:12:06Z</time>
      </trkpt>
      <trkpt lat="44.2488" lon="6.21863">
        <ele>1717.53</ele>
        <time>2016-02-15T14:12:28Z</time>
      </trkpt>
      <trkpt lat="44.24877" lon="6.21863">
        <ele>1717.53</ele>
        <time>2016-02-15T14:12:45Z</time>
      </trkpt>
      <trkpt lat="44.24873" lon="6.21866">
        <ele>1719.94</ele>
        <time>2016-02-15T14:12:59Z</time>
      </trkpt>
      <trkpt lat="44.24874" lon="6.21866">
        <ele>1717.53</ele>
        <time>2016-02-15T14:13:18Z</time>
      </trkpt>
      <trkpt lat="44.24865" lon="6.21862">
        <ele>1718.49</ele>
        <time>2016-02-15T14:13:34Z</time>
      </trkpt>
      <trkpt lat="44.24864" lon="6.21861">
        <ele>1718.49</ele>
        <time>2016-02-15T14:13:40Z</time>
      </trkpt>
      <trkpt lat="44.24855" lon="6.2185">
        <ele>1719.46</ele>
        <time>2016-02-15T14:13:55Z</time>
      </trkpt>
      <trkpt lat="44.24855" lon="6.21847">
        <ele>1718.97</ele>
        <time>2016-02-15T14:14:04Z</time>
      </trkpt>
      <trkpt lat="44.24855" lon="6.21847">
        <ele>1720.42</ele>
        <time>2016-02-15T14:14:08Z</time>
      </trkpt>
      <trkpt lat="44.24853" lon="6.21848">
        <ele>1720.42</ele>
        <time>2016-02-15T14:14:25Z</time>
      </trkpt>
      <trkpt lat="44.24848" lon="6.21848">
        <ele>1718.49</ele>
        <time>2016-02-15T14:14:33Z</time>
      </trkpt>
      <trkpt lat="44.24843" lon="6.21853">
        <ele>1717.05</ele>
        <time>2016-02-15T14:14:49Z</time>
      </trkpt>
      <trkpt lat="44.24843" lon="6.21853">
        <ele>1716.09</ele>
        <time>2016-02-15T14:15:07Z</time>
      </trkpt>
      <trkpt lat="44.24842" lon="6.21856">
        <ele>1716.09</ele>
        <time>2016-02-15T14:15:12Z</time>
      </trkpt>
      <trkpt lat="44.24836" lon="6.21867">
        <ele>1715.61</ele>
        <time>2016-02-15T14:15:29Z</time>
      </trkpt>
      <trkpt lat="44.24825" lon="6.21874">
        <ele>1712.25</ele>
        <time>2016-02-15T14:15:46Z</time>
      </trkpt>
      <trkpt lat="44.2482" lon="6.21873">
        <ele>1711.76</ele>
        <time>2016-02-15T14:16:00Z</time>
      </trkpt>
      <trkpt lat="44.24816" lon="6.21873">
        <ele>1711.28</ele>
        <time>2016-02-15T14:16:05Z</time>
      </trkpt>
      <trkpt lat="44.24813" lon="6.21873">
        <ele>1711.28</ele>
        <time>2016-02-15T14:16:08Z</time>
      </trkpt>
      <trkpt lat="44.24811" lon="6.21873">
        <ele>1710.32</ele>
        <time>2016-02-15T14:16:11Z</time>
      </trkpt>
      <trkpt lat="44.24808" lon="6.2187">
        <ele>1709.84</ele>
        <time>2016-02-15T14:16:15Z</time>
      </trkpt>
      <trkpt lat="44.24796" lon="6.21864">
        <ele>1708.4</ele>
        <time>2016-02-15T14:16:31Z</time>
      </trkpt>
      <trkpt lat="44.24789" lon="6.21866">
        <ele>1706.48</ele>
        <time>2016-02-15T14:16:47Z</time>
      </trkpt>
      <trkpt lat="44.24789" lon="6.21867">
        <ele>1705.52</ele>
        <time>2016-02-15T14:17:10Z</time>
      </trkpt>
      <trkpt lat="44.24788" lon="6.21878">
        <ele>1704.55</ele>
        <time>2016-02-15T14:17:29Z</time>
      </trkpt>
      <trkpt lat="44.24789" lon="6.21892">
        <ele>1702.63</ele>
        <time>2016-02-15T14:17:42Z</time>
      </trkpt>
      <trkpt lat="44.24782" lon="6.21898">
        <ele>1699.75</ele>
        <time>2016-02-15T14:17:56Z</time>
      </trkpt>
      <trkpt lat="44.24776" lon="6.21904">
        <ele>1697.34</ele>
        <time>2016-02-15T14:18:13Z</time>
      </trkpt>
      <trkpt lat="44.2477" lon="6.21911">
        <ele>1693.98</ele>
        <time>2016-02-15T14:18:26Z</time>
      </trkpt>
      <trkpt lat="44.24766" lon="6.21925">
        <ele>1692.54</ele>
        <time>2016-02-15T14:18:42Z</time>
      </trkpt>
      <trkpt lat="44.24756" lon="6.21938">
        <ele>1690.14</ele>
        <time>2016-02-15T14:19:00Z</time>
      </trkpt>
      <trkpt lat="44.24756" lon="6.21938">
        <ele>1690.14</ele>
        <time>2016-02-15T14:19:26Z</time>
      </trkpt>
      <trkpt lat="44.24753" lon="6.21952">
        <ele>1688.21</ele>
        <time>2016-02-15T14:19:44Z</time>
      </trkpt>
      <trkpt lat="44.2475" lon="6.21957">
        <ele>1686.77</ele>
        <time>2016-02-15T14:20:15Z</time>
      </trkpt>
      <trkpt lat="44.24748" lon="6.21962">
        <ele>1685.33</ele>
        <time>2016-02-15T14:20:40Z</time>
      </trkpt>
      <trkpt lat="44.24743" lon="6.21972">
        <ele>1681.96</ele>
        <time>2016-02-15T14:20:53Z</time>
      </trkpt>
      <trkpt lat="44.24736" lon="6.21984">
        <ele>1679.08</ele>
        <time>2016-02-15T14:21:09Z</time>
      </trkpt>
      <trkpt lat="44.24733" lon="6.21995">
        <ele>1675.72</ele>
        <time>2016-02-15T14:21:22Z</time>
      </trkpt>
      <trkpt lat="44.24731" lon="6.22001">
        <ele>1672.83</ele>
        <time>2016-02-15T14:21:35Z</time>
      </trkpt>
      <trkpt lat="44.24726" lon="6.22009">
        <ele>1669.47</ele>
        <time>2016-02-15T14:21:50Z</time>
      </trkpt>
      <trkpt lat="44.2472" lon="6.2202">
        <ele>1668.02</ele>
        <time>2016-02-15T14:22:05Z</time>
      </trkpt>
      <trkpt lat="44.24716" lon="6.22032">
        <ele>1667.06</ele>
        <time>2016-02-15T14:22:20Z</time>
      </trkpt>
      <trkpt lat="44.2471" lon="6.22046">
        <ele>1665.14</ele>
        <time>2016-02-15T14:22:36Z</time>
      </trkpt>
      <trkpt lat="44.24704" lon="6.22062">
        <ele>1663.22</ele>
        <time>2016-02-15T14:22:53Z</time>
      </trkpt>
      <trkpt lat="44.247" lon="6.22069">
        <ele>1662.74</ele>
        <time>2016-02-15T14:23:10Z</time>
      </trkpt>
      <trkpt lat="44.24696" lon="6.22086">
        <ele>1661.78</ele>
        <time>2016-02-15T14:23:26Z</time>
      </trkpt>
      <trkpt lat="44.2469" lon="6.22108">
        <ele>1659.37</ele>
        <time>2016-02-15T14:23:45Z</time>
      </trkpt>
      <trkpt lat="44.24687" lon="6.22124">
        <ele>1656.97</ele>
        <time>2016-02-15T14:23:58Z</time>
      </trkpt>
      <trkpt lat="44.24686" lon="6.22141">
        <ele>1654.57</ele>
        <time>2016-02-15T14:24:14Z</time>
      </trkpt>
      <trkpt lat="44.24688" lon="6.22154">
        <ele>1651.68</ele>
        <time>2016-02-15T14:24:30Z</time>
      </trkpt>
      <trkpt lat="44.24684" lon="6.22167">
        <ele>1649.76</ele>
        <time>2016-02-15T14:24:44Z</time>
      </trkpt>
      <trkpt lat="44.24678" lon="6.22174">
        <ele>1649.28</ele>
        <time>2016-02-15T14:24:52Z</time>
      </trkpt>
      <trkpt lat="44.24674" lon="6.22187">
        <ele>1650.72</ele>
        <time>2016-02-15T14:25:04Z</time>
      </trkpt>
      <trkpt lat="44.2467" lon="6.22205">
        <ele>1651.2</ele>
        <time>2016-02-15T14:25:20Z</time>
      </trkpt>
      <trkpt lat="44.2467" lon="6.22221">
        <ele>1651.2</ele>
        <time>2016-02-15T14:25:36Z</time>
      </trkpt>
      <trkpt lat="44.2467" lon="6.22238">
        <ele>1651.2</ele>
        <time>2016-02-15T14:25:52Z</time>
      </trkpt>
      <trkpt lat="44.24671" lon="6.22252">
        <ele>1649.76</ele>
        <time>2016-02-15T14:26:07Z</time>
      </trkpt>
      <trkpt lat="44.24669" lon="6.22252">
        <ele>1650.24</ele>
        <time>2016-02-15T14:26:22Z</time>
      </trkpt>
      <trkpt lat="44.2467" lon="6.22264">
        <ele>1647.84</ele>
        <time>2016-02-15T14:26:45Z</time>
      </trkpt>
      <trkpt lat="44.24669" lon="6.22277">
        <ele>1646.4</ele>
        <time>2016-02-15T14:27:01Z</time>
      </trkpt>
      <trkpt lat="44.24669" lon="6.22276">
        <ele>1643.99</ele>
        <time>2016-02-15T14:27:03Z</time>
      </trkpt>
      <trkpt lat="44.24669" lon="6.22276">
        <ele>1647.84</ele>
        <time>2016-02-15T14:27:05Z</time>
      </trkpt>
      <trkpt lat="44.24669" lon="6.22276">
        <ele>1647.84</ele>
        <time>2016-02-15T14:27:06Z</time>
      </trkpt>
      <trkpt lat="44.24669" lon="6.22276">
        <ele>1643.99</ele>
        <time>2016-02-15T14:27:08Z</time>
      </trkpt>
      <trkpt lat="44.24669" lon="6.22276">
        <ele>1646.88</ele>
        <time>2016-02-15T14:27:10Z</time>
      </trkpt>
      <trkpt lat="44.24669" lon="6.22277">
        <ele>1646.88</ele>
        <time>2016-02-15T14:27:11Z</time>
      </trkpt>
      <trkpt lat="44.24668" lon="6.2228">
        <ele>1644.95</ele>
        <time>2016-02-15T14:27:14Z</time>
      </trkpt>
      <trkpt lat="44.24668" lon="6.22283">
        <ele>1643.99</ele>
        <time>2016-02-15T14:27:17Z</time>
      </trkpt>
      <trkpt lat="44.24665" lon="6.22298">
        <ele>1641.11</ele>
        <time>2016-02-15T14:27:31Z</time>
      </trkpt>
      <trkpt lat="44.24664" lon="6.22308">
        <ele>1638.22</ele>
        <time>2016-02-15T14:27:42Z</time>
      </trkpt>
      <trkpt lat="44.24661" lon="6.22319">
        <ele>1635.34</ele>
        <time>2016-02-15T14:27:52Z</time>
      </trkpt>
      <trkpt lat="44.24661" lon="6.22331">
        <ele>1632.46</ele>
        <time>2016-02-15T14:28:08Z</time>
      </trkpt>
      <trkpt lat="44.24659" lon="6.22345">
        <ele>1630.05</ele>
        <time>2016-02-15T14:28:23Z</time>
      </trkpt>
      <trkpt lat="44.24657" lon="6.22359">
        <ele>1627.65</ele>
        <time>2016-02-15T14:28:38Z</time>
      </trkpt>
      <trkpt lat="44.24653" lon="6.22366">
        <ele>1627.17</ele>
        <time>2016-02-15T14:28:55Z</time>
      </trkpt>
      <trkpt lat="44.24651" lon="6.22368">
        <ele>1625.73</ele>
        <time>2016-02-15T14:28:58Z</time>
      </trkpt>
      <trkpt lat="44.24649" lon="6.22382">
        <ele>1624.77</ele>
        <time>2016-02-15T14:29:15Z</time>
      </trkpt>
      <trkpt lat="44.2465" lon="6.22399">
        <ele>1624.77</ele>
        <time>2016-02-15T14:29:31Z</time>
      </trkpt>
      <trkpt lat="44.24654" lon="6.22415">
        <ele>1624.28</ele>
        <time>2016-02-15T14:29:47Z</time>
      </trkpt>
      <trkpt lat="44.24655" lon="6.22429">
        <ele>1623.8</ele>
        <time>2016-02-15T14:30:06Z</time>
      </trkpt>
      <trkpt lat="44.24656" lon="6.22442">
        <ele>1623.32</ele>
        <time>2016-02-15T14:30:20Z</time>
      </trkpt>
      <trkpt lat="44.24656" lon="6.22447">
        <ele>1621.88</ele>
        <time>2016-02-15T14:30:35Z</time>
      </trkpt>
      <trkpt lat="44.24656" lon="6.2245">
        <ele>1624.28</ele>
        <time>2016-02-15T14:30:38Z</time>
      </trkpt>
      <trkpt lat="44.24658" lon="6.22461">
        <ele>1622.84</ele>
        <time>2016-02-15T14:30:48Z</time>
      </trkpt>
      <trkpt lat="44.24664" lon="6.22477">
        <ele>1620.92</ele>
        <time>2016-02-15T14:31:05Z</time>
      </trkpt>
      <trkpt lat="44.24669" lon="6.22493">
        <ele>1618.52</ele>
        <time>2016-02-15T14:31:22Z</time>
      </trkpt>
      <trkpt lat="44.24678" lon="6.22507">
        <ele>1615.15</ele>
        <time>2016-02-15T14:31:38Z</time>
      </trkpt>
      <trkpt lat="44.24687" lon="6.2252">
        <ele>1612.75</ele>
        <time>2016-02-15T14:31:54Z</time>
      </trkpt>
      <trkpt lat="44.2469" lon="6.22524">
        <ele>1611.79</ele>
        <time>2016-02-15T14:31:58Z</time>
      </trkpt>
      <trkpt lat="44.247" lon="6.22536">
        <ele>1610.35</ele>
        <time>2016-02-15T14:32:13Z</time>
      </trkpt>
      <trkpt lat="44.24708" lon="6.2255">
        <ele>1608.9</ele>
        <time>2016-02-15T14:32:28Z</time>
      </trkpt>
      <trkpt lat="44.24714" lon="6.22557">
        <ele>1607.94</ele>
        <time>2016-02-15T14:32:37Z</time>
      </trkpt>
      <trkpt lat="44.24724" lon="6.2257">
        <ele>1606.98</ele>
        <time>2016-02-15T14:32:53Z</time>
      </trkpt>
      <trkpt lat="44.24737" lon="6.22582">
        <ele>1606.02</ele>
        <time>2016-02-15T14:33:11Z</time>
      </trkpt>
      <trkpt lat="44.24747" lon="6.22593">
        <ele>1605.06</ele>
        <time>2016-02-15T14:33:27Z</time>
      </trkpt>
      <trkpt lat="44.24753" lon="6.22598">
        <ele>1605.54</ele>
        <time>2016-02-15T14:33:35Z</time>
      </trkpt>
      <trkpt lat="44.24764" lon="6.22608">
        <ele>1603.62</ele>
        <time>2016-02-15T14:33:51Z</time>
      </trkpt>
      <trkpt lat="44.24776" lon="6.22618">
        <ele>1603.14</ele>
        <time>2016-02-15T14:34:07Z</time>
      </trkpt>
      <trkpt lat="44.24784" lon="6.2263">
        <ele>1601.21</ele>
        <time>2016-02-15T14:34:23Z</time>
      </trkpt>
      <trkpt lat="44.2479" lon="6.22638">
        <ele>1601.21</ele>
        <time>2016-02-15T14:34:39Z</time>
      </trkpt>
      <trkpt lat="44.24793" lon="6.22638">
        <ele>1600.25</ele>
        <time>2016-02-15T14:34:54Z</time>
      </trkpt>
      <trkpt lat="44.248" lon="6.22645">
        <ele>1599.77</ele>
        <time>2016-02-15T14:35:07Z</time>
      </trkpt>
      <trkpt lat="44.24802" lon="6.22647">
        <ele>1600.73</ele>
        <time>2016-02-15T14:35:10Z</time>
      </trkpt>
      <trkpt lat="44.24815" lon="6.22654">
        <ele>1601.21</ele>
        <time>2016-02-15T14:35:25Z</time>
      </trkpt>
      <trkpt lat="44.24825" lon="6.22666">
        <ele>1601.21</ele>
        <time>2016-02-15T14:35:41Z</time>
      </trkpt>
      <trkpt lat="44.24829" lon="6.22671">
        <ele>1599.29</ele>
        <time>2016-02-15T14:35:47Z</time>
      </trkpt>
      <trkpt lat="44.24831" lon="6.22676">
        <ele>1600.73</ele>
        <time>2016-02-15T14:35:52Z</time>
      </trkpt>
      <trkpt lat="44.24836" lon="6.22691">
        <ele>1601.69</ele>
        <time>2016-02-15T14:36:06Z</time>
      </trkpt>
      <trkpt lat="44.24835" lon="6.22711">
        <ele>1601.69</ele>
        <time>2016-02-15T14:36:23Z</time>
      </trkpt>
      <trkpt lat="44.24835" lon="6.22721">
        <ele>1601.69</ele>
        <time>2016-02-15T14:36:30Z</time>
      </trkpt>
      <trkpt lat="44.24835" lon="6.22727">
        <ele>1599.77</ele>
        <time>2016-02-15T14:36:35Z</time>
      </trkpt>
      <trkpt lat="44.24839" lon="6.22746">
        <ele>1599.29</ele>
        <time>2016-02-15T14:36:50Z</time>
      </trkpt>
      <trkpt lat="44.2484" lon="6.22763">
        <ele>1597.85</ele>
        <time>2016-02-15T14:37:05Z</time>
      </trkpt>
      <trkpt lat="44.24849" lon="6.22776">
        <ele>1595.45</ele>
        <time>2016-02-15T14:37:21Z</time>
      </trkpt>
      <trkpt lat="44.24852" lon="6.22789">
        <ele>1596.41</ele>
        <time>2016-02-15T14:37:33Z</time>
      </trkpt>
      <trkpt lat="44.24853" lon="6.22791">
        <ele>1594.96</ele>
        <time>2016-02-15T14:37:35Z</time>
      </trkpt>
      <trkpt lat="44.24857" lon="6.22804">
        <ele>1593.04</ele>
        <time>2016-02-15T14:37:49Z</time>
      </trkpt>
      <trkpt lat="44.24858" lon="6.2282">
        <ele>1590.16</ele>
        <time>2016-02-15T14:38:04Z</time>
      </trkpt>
      <trkpt lat="44.24863" lon="6.22824">
        <ele>1588.72</ele>
        <time>2016-02-15T14:38:18Z</time>
      </trkpt>
      <trkpt lat="44.24875" lon="6.22828">
        <ele>1585.35</ele>
        <time>2016-02-15T14:38:34Z</time>
      </trkpt>
      <trkpt lat="44.24886" lon="6.22841">
        <ele>1582.47</ele>
        <time>2016-02-15T14:38:53Z</time>
      </trkpt>
      <trkpt lat="44.2489" lon="6.22846">
        <ele>1580.54</ele>
        <time>2016-02-15T14:39:01Z</time>
      </trkpt>
      <trkpt lat="44.24899" lon="6.22857">
        <ele>1578.62</ele>
        <time>2016-02-15T14:39:18Z</time>
      </trkpt>
      <trkpt lat="44.24906" lon="6.22865">
        <ele>1575.74</ele>
        <time>2016-02-15T14:39:29Z</time>
      </trkpt>
      <trkpt lat="44.24918" lon="6.22873">
        <ele>1572.37</ele>
        <time>2016-02-15T14:39:47Z</time>
      </trkpt>
      <trkpt lat="44.24925" lon="6.22891">
        <ele>1569.97</ele>
        <time>2016-02-15T14:40:04Z</time>
      </trkpt>
      <trkpt lat="44.24928" lon="6.22909">
        <ele>1568.05</ele>
        <time>2016-02-15T14:40:20Z</time>
      </trkpt>
      <trkpt lat="44.24929" lon="6.22931">
        <ele>1566.12</ele>
        <time>2016-02-15T14:40:38Z</time>
      </trkpt>
      <trkpt lat="44.2493" lon="6.22949">
        <ele>1563.24</ele>
        <time>2016-02-15T14:40:56Z</time>
      </trkpt>
      <trkpt lat="44.24936" lon="6.22965">
        <ele>1559.88</ele>
        <time>2016-02-15T14:41:12Z</time>
      </trkpt>
      <trkpt lat="44.24942" lon="6.22973">
        <ele>1556.51</ele>
        <time>2016-02-15T14:41:24Z</time>
      </trkpt>
      <trkpt lat="44.24949" lon="6.2299">
        <ele>1554.11</ele>
        <time>2016-02-15T14:41:41Z</time>
      </trkpt>
      <trkpt lat="44.24953" lon="6.22996">
        <ele>1551.22</ele>
        <time>2016-02-15T14:41:50Z</time>
      </trkpt>
      <trkpt lat="44.24955" lon="6.22997">
        <ele>1547.86</ele>
        <time>2016-02-15T14:41:53Z</time>
      </trkpt>
      <trkpt lat="44.24957" lon="6.22997">
        <ele>1547.86</ele>
        <time>2016-02-15T14:41:54Z</time>
      </trkpt>
      <trkpt lat="44.24959" lon="6.22997">
        <ele>1549.78</ele>
        <time>2016-02-15T14:41:57Z</time>
      </trkpt>
      <trkpt lat="44.24966" lon="6.23014">
        <ele>1547.86</ele>
        <time>2016-02-15T14:42:14Z</time>
      </trkpt>
      <trkpt lat="44.24974" lon="6.23024">
        <ele>1544.98</ele>
        <time>2016-02-15T14:42:31Z</time>
      </trkpt>
      <trkpt lat="44.24978" lon="6.23033">
        <ele>1542.09</ele>
        <time>2016-02-15T14:42:42Z</time>
      </trkpt>
      <trkpt lat="44.24983" lon="6.23039">
        <ele>1538.73</ele>
        <time>2016-02-15T14:42:51Z</time>
      </trkpt>
      <trkpt lat="44.24984" lon="6.23039">
        <ele>1538.73</ele>
        <time>2016-02-15T14:42:52Z</time>
      </trkpt>
      <trkpt lat="44.24987" lon="6.23039">
        <ele>1535.36</ele>
        <time>2016-02-15T14:42:56Z</time>
      </trkpt>
      <trkpt lat="44.24988" lon="6.23039">
        <ele>1534.88</ele>
        <time>2016-02-15T14:42:57Z</time>
      </trkpt>
      <trkpt lat="44.24991" lon="6.23039">
        <ele>1536.8</ele>
        <time>2016-02-15T14:43:01Z</time>
      </trkpt>
      <trkpt lat="44.24993" lon="6.23044">
        <ele>1535.36</ele>
        <time>2016-02-15T14:43:10Z</time>
      </trkpt>
      <trkpt lat="44.25002" lon="6.23053">
        <ele>1532</ele>
        <time>2016-02-15T14:43:26Z</time>
      </trkpt>
      <trkpt lat="44.25008" lon="6.23061">
        <ele>1528.15</ele>
        <time>2016-02-15T14:43:40Z</time>
      </trkpt>
      <trkpt lat="44.25008" lon="6.2306">
        <ele>1528.15</ele>
        <time>2016-02-15T14:43:41Z</time>
      </trkpt>
      <trkpt lat="44.25016" lon="6.23069">
        <ele>1525.75</ele>
        <time>2016-02-15T14:43:58Z</time>
      </trkpt>
      <trkpt lat="44.25018" lon="6.23072">
        <ele>1523.83</ele>
        <time>2016-02-15T14:44:03Z</time>
      </trkpt>
      <trkpt lat="44.2502" lon="6.23074">
        <ele>1523.83</ele>
        <time>2016-02-15T14:44:14Z</time>
      </trkpt>
      <trkpt lat="44.2502" lon="6.23073">
        <ele>1522.39</ele>
        <time>2016-02-15T14:44:22Z</time>
      </trkpt>
      <trkpt lat="44.25023" lon="6.23077">
        <ele>1520.94</ele>
        <time>2016-02-15T14:44:32Z</time>
      </trkpt>
      <trkpt lat="44.25026" lon="6.23072">
        <ele>1521.42</ele>
        <time>2016-02-15T14:44:37Z</time>
      </trkpt>
      <trkpt lat="44.2503" lon="6.23051">
        <ele>1519.98</ele>
        <time>2016-02-15T14:44:55Z</time>
      </trkpt>
      <trkpt lat="44.25033" lon="6.23048">
        <ele>1519.02</ele>
        <time>2016-02-15T14:44:59Z</time>
      </trkpt>
      <trkpt lat="44.25044" lon="6.2305">
        <ele>1517.58</ele>
        <time>2016-02-15T14:45:10Z</time>
      </trkpt>
      <trkpt lat="44.25061" lon="6.23061">
        <ele>1514.69</ele>
        <time>2016-02-15T14:45:29Z</time>
      </trkpt>
      <trkpt lat="44.25075" lon="6.23069">
        <ele>1515.66</ele>
        <time>2016-02-15T14:45:45Z</time>
      </trkpt>
      <trkpt lat="44.25082" lon="6.23073">
        <ele>1514.21</ele>
        <time>2016-02-15T14:45:54Z</time>
      </trkpt>
      <trkpt lat="44.25086" lon="6.23078">
        <ele>1513.73</ele>
        <time>2016-02-15T14:46:10Z</time>
      </trkpt>
      <trkpt lat="44.25097" lon="6.23089">
        <ele>1511.33</ele>
        <time>2016-02-15T14:46:26Z</time>
      </trkpt>
      <trkpt lat="44.25116" lon="6.23098">
        <ele>1508.93</ele>
        <time>2016-02-15T14:46:45Z</time>
      </trkpt>
      <trkpt lat="44.25134" lon="6.23103">
        <ele>1507</ele>
        <time>2016-02-15T14:47:03Z</time>
      </trkpt>
      <trkpt lat="44.25146" lon="6.23107">
        <ele>1507.48</ele>
        <time>2016-02-15T14:47:18Z</time>
      </trkpt>
      <trkpt lat="44.25155" lon="6.23121">
        <ele>1507</ele>
        <time>2016-02-15T14:47:33Z</time>
      </trkpt>
      <trkpt lat="44.25167" lon="6.23144">
        <ele>1503.16</ele>
        <time>2016-02-15T14:47:53Z</time>
      </trkpt>
      <trkpt lat="44.25174" lon="6.23159">
        <ele>1502.2</ele>
        <time>2016-02-15T14:48:05Z</time>
      </trkpt>
      <trkpt lat="44.25185" lon="6.2318">
        <ele>1499.79</ele>
        <time>2016-02-15T14:48:24Z</time>
      </trkpt>
      <trkpt lat="44.25191" lon="6.23191">
        <ele>1497.87</ele>
        <time>2016-02-15T14:48:41Z</time>
      </trkpt>
      <trkpt lat="44.25201" lon="6.23212">
        <ele>1494.99</ele>
        <time>2016-02-15T14:48:58Z</time>
      </trkpt>
      <trkpt lat="44.25206" lon="6.23223">
        <ele>1493.55</ele>
        <time>2016-02-15T14:49:07Z</time>
      </trkpt>
      <trkpt lat="44.25211" lon="6.23228">
        <ele>1492.1</ele>
        <time>2016-02-15T14:49:24Z</time>
      </trkpt>
      <trkpt lat="44.25215" lon="6.23238">
        <ele>1491.14</ele>
        <time>2016-02-15T14:49:33Z</time>
      </trkpt>
      <trkpt lat="44.25224" lon="6.23258">
        <ele>1488.74</ele>
        <time>2016-02-15T14:49:49Z</time>
      </trkpt>
      <trkpt lat="44.25236" lon="6.23282">
        <ele>1488.26</ele>
        <time>2016-02-15T14:50:10Z</time>
      </trkpt>
      <trkpt lat="44.25238" lon="6.23287">
        <ele>1488.26</ele>
        <time>2016-02-15T14:50:26Z</time>
      </trkpt>
      <trkpt lat="44.25242" lon="6.23298">
        <ele>1486.82</ele>
        <time>2016-02-15T14:50:42Z</time>
      </trkpt>
      <trkpt lat="44.25248" lon="6.23314">
        <ele>1486.34</ele>
        <time>2016-02-15T14:50:56Z</time>
      </trkpt>
      <trkpt lat="44.25252" lon="6.23329">
        <ele>1486.34</ele>
        <time>2016-02-15T14:51:10Z</time>
      </trkpt>
      <trkpt lat="44.25255" lon="6.23345">
        <ele>1486.34</ele>
        <time>2016-02-15T14:51:26Z</time>
      </trkpt>
      <trkpt lat="44.2526" lon="6.23362">
        <ele>1486.34</ele>
        <time>2016-02-15T14:51:43Z</time>
      </trkpt>
      <trkpt lat="44.25265" lon="6.23378">
        <ele>1486.34</ele>
        <time>2016-02-15T14:51:57Z</time>
      </trkpt>
      <trkpt lat="44.25269" lon="6.23392">
        <ele>1487.78</ele>
        <time>2016-02-15T14:52:12Z</time>
      </trkpt>
      <trkpt lat="44.2527" lon="6.23398">
        <ele>1487.78</ele>
        <time>2016-02-15T14:52:30Z</time>
      </trkpt>
      <trkpt lat="44.25273" lon="6.23411">
        <ele>1487.78</ele>
        <time>2016-02-15T14:52:47Z</time>
      </trkpt>
      <trkpt lat="44.25281" lon="6.23423">
        <ele>1486.82</ele>
        <time>2016-02-15T14:53:03Z</time>
      </trkpt>
      <trkpt lat="44.25283" lon="6.23425">
        <ele>1486.82</ele>
        <time>2016-02-15T14:53:06Z</time>
      </trkpt>
      <trkpt lat="44.25294" lon="6.23436">
        <ele>1486.34</ele>
        <time>2016-02-15T14:53:22Z</time>
      </trkpt>
      <trkpt lat="44.25306" lon="6.2345">
        <ele>1486.34</ele>
        <time>2016-02-15T14:53:40Z</time>
      </trkpt>
      <trkpt lat="44.25317" lon="6.23462">
        <ele>1486.34</ele>
        <time>2016-02-15T14:53:55Z</time>
      </trkpt>
      <trkpt lat="44.25318" lon="6.23465">
        <ele>1485.85</ele>
        <time>2016-02-15T14:53:58Z</time>
      </trkpt>
      <trkpt lat="44.25328" lon="6.23484">
        <ele>1484.89</ele>
        <time>2016-02-15T14:54:15Z</time>
      </trkpt>
      <trkpt lat="44.25337" lon="6.23501">
        <ele>1483.45</ele>
        <time>2016-02-15T14:54:33Z</time>
      </trkpt>
      <trkpt lat="44.25343" lon="6.23509">
        <ele>1482.01</ele>
        <time>2016-02-15T14:54:42Z</time>
      </trkpt>
      <trkpt lat="44.25357" lon="6.23513">
        <ele>1479.61</ele>
        <time>2016-02-15T14:54:58Z</time>
      </trkpt>
      <trkpt lat="44.25365" lon="6.23515">
        <ele>1481.05</ele>
        <time>2016-02-15T14:55:07Z</time>
      </trkpt>
      <trkpt lat="44.25378" lon="6.23522">
        <ele>1481.53</ele>
        <time>2016-02-15T14:55:22Z</time>
      </trkpt>
      <trkpt lat="44.25383" lon="6.23527">
        <ele>1480.09</ele>
        <time>2016-02-15T14:55:28Z</time>
      </trkpt>
      <trkpt lat="44.25396" lon="6.23531">
        <ele>1481.53</ele>
        <time>2016-02-15T14:55:45Z</time>
      </trkpt>
      <trkpt lat="44.25397" lon="6.23531">
        <ele>1481.53</ele>
        <time>2016-02-15T14:55:46Z</time>
      </trkpt>
      <trkpt lat="44.25406" lon="6.23534">
        <ele>1482.49</ele>
        <time>2016-02-15T14:56:01Z</time>
      </trkpt>
      <trkpt lat="44.25419" lon="6.2354">
        <ele>1483.45</ele>
        <time>2016-02-15T14:56:19Z</time>
      </trkpt>
      <trkpt lat="44.25429" lon="6.23548">
        <ele>1483.93</ele>
        <time>2016-02-15T14:56:34Z</time>
      </trkpt>
      <trkpt lat="44.25439" lon="6.23555">
        <ele>1485.85</ele>
        <time>2016-02-15T14:56:50Z</time>
      </trkpt>
      <trkpt lat="44.25448" lon="6.23561">
        <ele>1486.34</ele>
        <time>2016-02-15T14:57:03Z</time>
      </trkpt>
      <trkpt lat="44.25461" lon="6.2357">
        <ele>1487.3</ele>
        <time>2016-02-15T14:57:22Z</time>
      </trkpt>
      <trkpt lat="44.25473" lon="6.23577">
        <ele>1489.7</ele>
        <time>2016-02-15T14:57:42Z</time>
      </trkpt>
      <trkpt lat="44.25478" lon="6.23584">
        <ele>1489.7</ele>
        <time>2016-02-15T14:57:51Z</time>
      </trkpt>
      <trkpt lat="44.25478" lon="6.23586">
        <ele>1489.7</ele>
        <time>2016-02-15T14:57:53Z</time>
      </trkpt>
      <trkpt lat="44.25481" lon="6.23603">
        <ele>1489.22</ele>
        <time>2016-02-15T14:58:07Z</time>
      </trkpt>
      <trkpt lat="44.25485" lon="6.23614">
        <ele>1488.74</ele>
        <time>2016-02-15T14:58:21Z</time>
      </trkpt>
      <trkpt lat="44.2549" lon="6.23626">
        <ele>1488.26</ele>
        <time>2016-02-15T14:58:38Z</time>
      </trkpt>
      <trkpt lat="44.25492" lon="6.23629">
        <ele>1488.26</ele>
        <time>2016-02-15T14:58:41Z</time>
      </trkpt>
      <trkpt lat="44.25493" lon="6.23636">
        <ele>1487.78</ele>
        <time>2016-02-15T14:58:46Z</time>
      </trkpt>
      <trkpt lat="44.25496" lon="6.23658">
        <ele>1484.89</ele>
        <time>2016-02-15T14:59:04Z</time>
      </trkpt>
      <trkpt lat="44.25503" lon="6.23668">
        <ele>1483.45</ele>
        <time>2016-02-15T14:59:15Z</time>
      </trkpt>
      <trkpt lat="44.25509" lon="6.23674">
        <ele>1482.97</ele>
        <time>2016-02-15T14:59:22Z</time>
      </trkpt>
      <trkpt lat="44.25523" lon="6.23692">
        <ele>1480.09</ele>
        <time>2016-02-15T14:59:41Z</time>
      </trkpt>
      <trkpt lat="44.25536" lon="6.23708">
        <ele>1478.65</ele>
        <time>2016-02-15T14:59:59Z</time>
      </trkpt>
      <trkpt lat="44.25538" lon="6.23711">
        <ele>1477.2</ele>
        <time>2016-02-15T15:00:02Z</time>
      </trkpt>
      <trkpt lat="44.25545" lon="6.23722">
        <ele>1476.24</ele>
        <time>2016-02-15T15:00:12Z</time>
      </trkpt>
      <trkpt lat="44.25547" lon="6.23724">
        <ele>1476.24</ele>
        <time>2016-02-15T15:00:14Z</time>
      </trkpt>
      <trkpt lat="44.25555" lon="6.23739">
        <ele>1475.76</ele>
        <time>2016-02-15T15:00:29Z</time>
      </trkpt>
      <trkpt lat="44.25565" lon="6.23755">
        <ele>1475.28</ele>
        <time>2016-02-15T15:00:46Z</time>
      </trkpt>
      <trkpt lat="44.25559" lon="6.23766">
        <ele>1473.36</ele>
        <time>2016-02-15T15:00:59Z</time>
      </trkpt>
      <trkpt lat="44.25548" lon="6.23759">
        <ele>1469.51</ele>
        <time>2016-02-15T15:01:15Z</time>
      </trkpt>
      <trkpt lat="44.25544" lon="6.23755">
        <ele>1469.03</ele>
        <time>2016-02-15T15:01:19Z</time>
      </trkpt>
      <trkpt lat="44.25532" lon="6.2374">
        <ele>1465.67</ele>
        <time>2016-02-15T15:01:36Z</time>
      </trkpt>
      <trkpt lat="44.25523" lon="6.23733">
        <ele>1462.3</ele>
        <time>2016-02-15T15:01:49Z</time>
      </trkpt>
      <trkpt lat="44.25511" lon="6.23725">
        <ele>1459.9</ele>
        <time>2016-02-15T15:02:06Z</time>
      </trkpt>
      <trkpt lat="44.25497" lon="6.2372">
        <ele>1456.53</ele>
        <time>2016-02-15T15:02:22Z</time>
      </trkpt>
      <trkpt lat="44.25496" lon="6.2372">
        <ele>1456.53</ele>
        <time>2016-02-15T15:02:23Z</time>
      </trkpt>
      <trkpt lat="44.25484" lon="6.2372">
        <ele>1453.17</ele>
        <time>2016-02-15T15:02:34Z</time>
      </trkpt>
      <trkpt lat="44.25473" lon="6.23716">
        <ele>1450.29</ele>
        <time>2016-02-15T15:02:46Z</time>
      </trkpt>
      <trkpt lat="44.25466" lon="6.23711">
        <ele>1449.32</ele>
        <time>2016-02-15T15:02:54Z</time>
      </trkpt>
      <trkpt lat="44.25458" lon="6.23705">
        <ele>1448.36</ele>
        <time>2016-02-15T15:03:03Z</time>
      </trkpt>
      <trkpt lat="44.25439" lon="6.23697">
        <ele>1445.48</ele>
        <time>2016-02-15T15:03:22Z</time>
      </trkpt>
      <trkpt lat="44.25423" lon="6.23691">
        <ele>1442.6</ele>
        <time>2016-02-15T15:03:38Z</time>
      </trkpt>
      <trkpt lat="44.25413" lon="6.23687">
        <ele>1439.23</ele>
        <time>2016-02-15T15:03:51Z</time>
      </trkpt>
      <trkpt lat="44.25399" lon="6.23681">
        <ele>1436.35</ele>
        <time>2016-02-15T15:04:08Z</time>
      </trkpt>
      <trkpt lat="44.25393" lon="6.2368">
        <ele>1435.39</ele>
        <time>2016-02-15T15:04:15Z</time>
      </trkpt>
      <trkpt lat="44.25377" lon="6.23677">
        <ele>1432.5</ele>
        <time>2016-02-15T15:04:31Z</time>
      </trkpt>
      <trkpt lat="44.25366" lon="6.23675">
        <ele>1429.62</ele>
        <time>2016-02-15T15:04:43Z</time>
      </trkpt>
      <trkpt lat="44.25358" lon="6.23686">
        <ele>1426.25</ele>
        <time>2016-02-15T15:04:57Z</time>
      </trkpt>
      <trkpt lat="44.25352" lon="6.23699">
        <ele>1422.89</ele>
        <time>2016-02-15T15:05:08Z</time>
      </trkpt>
      <trkpt lat="44.25345" lon="6.23712">
        <ele>1424.33</ele>
        <time>2016-02-15T15:05:19Z</time>
      </trkpt>
      <trkpt lat="44.25338" lon="6.23725">
        <ele>1422.41</ele>
        <time>2016-02-15T15:05:33Z</time>
      </trkpt>
      <trkpt lat="44.25328" lon="6.23743">
        <ele>1420</ele>
        <time>2016-02-15T15:05:50Z</time>
      </trkpt>
      <trkpt lat="44.25327" lon="6.23755">
        <ele>1418.56</ele>
        <time>2016-02-15T15:06:03Z</time>
      </trkpt>
      <trkpt lat="44.25325" lon="6.23756">
        <ele>1418.08</ele>
        <time>2016-02-15T15:06:19Z</time>
      </trkpt>
      <trkpt lat="44.25325" lon="6.23757">
        <ele>1419.52</ele>
        <time>2016-02-15T15:06:46Z</time>
      </trkpt>
      <trkpt lat="44.25324" lon="6.23755">
        <ele>1420.49</ele>
        <time>2016-02-15T15:07:10Z</time>
      </trkpt>
      <trkpt lat="44.25323" lon="6.23758">
        <ele>1420.49</ele>
        <time>2016-02-15T15:07:43Z</time>
      </trkpt>
      <trkpt lat="44.25323" lon="6.23758">
        <ele>1419.04</ele>
        <time>2016-02-15T15:08:04Z</time>
      </trkpt>
      <trkpt lat="44.25318" lon="6.23768">
        <ele>1419.04</ele>
        <time>2016-02-15T15:08:18Z</time>
      </trkpt>
      <trkpt lat="44.2531" lon="6.23785">
        <ele>1418.08</ele>
        <time>2016-02-15T15:08:33Z</time>
      </trkpt>
      <trkpt lat="44.25306" lon="6.2379">
        <ele>1417.12</ele>
        <time>2016-02-15T15:08:40Z</time>
      </trkpt>
      <trkpt lat="44.25291" lon="6.23801">
        <ele>1413.76</ele>
        <time>2016-02-15T15:08:56Z</time>
      </trkpt>
      <trkpt lat="44.25283" lon="6.23811">
        <ele>1411.83</ele>
        <time>2016-02-15T15:09:08Z</time>
      </trkpt>
      <trkpt lat="44.25275" lon="6.23829">
        <ele>1408.47</ele>
        <time>2016-02-15T15:09:23Z</time>
      </trkpt>
      <trkpt lat="44.25266" lon="6.23847">
        <ele>1406.55</ele>
        <time>2016-02-15T15:09:39Z</time>
      </trkpt>
      <trkpt lat="44.25265" lon="6.23848">
        <ele>1405.58</ele>
        <time>2016-02-15T15:09:41Z</time>
      </trkpt>
      <trkpt lat="44.25256" lon="6.23859">
        <ele>1402.7</ele>
        <time>2016-02-15T15:09:56Z</time>
      </trkpt>
      <trkpt lat="44.2525" lon="6.23868">
        <ele>1401.74</ele>
        <time>2016-02-15T15:10:09Z</time>
      </trkpt>
      <trkpt lat="44.25243" lon="6.2388">
        <ele>1398.37</ele>
        <time>2016-02-15T15:10:23Z</time>
      </trkpt>
      <trkpt lat="44.25242" lon="6.23881">
        <ele>1398.37</ele>
        <time>2016-02-15T15:10:24Z</time>
      </trkpt>
      <trkpt lat="44.25237" lon="6.2389">
        <ele>1396.45</ele>
        <time>2016-02-15T15:10:34Z</time>
      </trkpt>
      <trkpt lat="44.25232" lon="6.23902">
        <ele>1393.57</ele>
        <time>2016-02-15T15:10:46Z</time>
      </trkpt>
      <trkpt lat="44.25225" lon="6.23919">
        <ele>1390.68</ele>
        <time>2016-02-15T15:11:01Z</time>
      </trkpt>
      <trkpt lat="44.25222" lon="6.23939">
        <ele>1387.8</ele>
        <time>2016-02-15T15:11:16Z</time>
      </trkpt>
      <trkpt lat="44.25212" lon="6.2394">
        <ele>1385.88</ele>
        <time>2016-02-15T15:11:29Z</time>
      </trkpt>
      <trkpt lat="44.25197" lon="6.2393">
        <ele>1381.55</ele>
        <time>2016-02-15T15:11:46Z</time>
      </trkpt>
      <trkpt lat="44.25195" lon="6.23929">
        <ele>1380.59</ele>
        <time>2016-02-15T15:11:49Z</time>
      </trkpt>
      <trkpt lat="44.25186" lon="6.23923">
        <ele>1378.19</ele>
        <time>2016-02-15T15:12:02Z</time>
      </trkpt>
      <trkpt lat="44.25182" lon="6.23924">
        <ele>1376.75</ele>
        <time>2016-02-15T15:12:08Z</time>
      </trkpt>
      <trkpt lat="44.2517" lon="6.23929">
        <ele>1374.82</ele>
        <time>2016-02-15T15:12:22Z</time>
      </trkpt>
      <trkpt lat="44.25163" lon="6.23946">
        <ele>1372.42</ele>
        <time>2016-02-15T15:12:38Z</time>
      </trkpt>
      <trkpt lat="44.25162" lon="6.23952">
        <ele>1371.46</ele>
        <time>2016-02-15T15:12:42Z</time>
      </trkpt>
      <trkpt lat="44.25156" lon="6.23972">
        <ele>1370.02</ele>
        <time>2016-02-15T15:12:57Z</time>
      </trkpt>
      <trkpt lat="44.25154" lon="6.23984">
        <ele>1368.57</ele>
        <time>2016-02-15T15:13:05Z</time>
      </trkpt>
      <trkpt lat="44.25154" lon="6.23988">
        <ele>1367.61</ele>
        <time>2016-02-15T15:13:08Z</time>
      </trkpt>
      <trkpt lat="44.2515" lon="6.2401">
        <ele>1364.73</ele>
        <time>2016-02-15T15:13:26Z</time>
      </trkpt>
      <trkpt lat="44.25152" lon="6.24026">
        <ele>1362.81</ele>
        <time>2016-02-15T15:13:39Z</time>
      </trkpt>
      <trkpt lat="44.25156" lon="6.24049">
        <ele>1360.4</ele>
        <time>2016-02-15T15:13:56Z</time>
      </trkpt>
      <trkpt lat="44.25157" lon="6.24056">
        <ele>1359.92</ele>
        <time>2016-02-15T15:14:01Z</time>
      </trkpt>
      <trkpt lat="44.25158" lon="6.24059">
        <ele>1359.92</ele>
        <time>2016-02-15T15:14:04Z</time>
      </trkpt>
      <trkpt lat="44.2516" lon="6.24075">
        <ele>1358.96</ele>
        <time>2016-02-15T15:14:17Z</time>
      </trkpt>
      <trkpt lat="44.25166" lon="6.24088">
        <ele>1357.04</ele>
        <time>2016-02-15T15:14:28Z</time>
      </trkpt>
      <trkpt lat="44.25174" lon="6.24103">
        <ele>1355.6</ele>
        <time>2016-02-15T15:14:44Z</time>
      </trkpt>
      <trkpt lat="44.25175" lon="6.24106">
        <ele>1354.15</ele>
        <time>2016-02-15T15:14:49Z</time>
      </trkpt>
      <trkpt lat="44.25178" lon="6.24115">
        <ele>1354.15</ele>
        <time>2016-02-15T15:14:57Z</time>
      </trkpt>
      <trkpt lat="44.25184" lon="6.24128">
        <ele>1352.71</ele>
        <time>2016-02-15T15:15:12Z</time>
      </trkpt>
      <trkpt lat="44.25189" lon="6.24141">
        <ele>1352.23</ele>
        <time>2016-02-15T15:15:23Z</time>
      </trkpt>
      <trkpt lat="44.25197" lon="6.24165">
        <ele>1350.31</ele>
        <time>2016-02-15T15:15:42Z</time>
      </trkpt>
      <trkpt lat="44.25201" lon="6.2418">
        <ele>1349.83</ele>
        <time>2016-02-15T15:15:56Z</time>
      </trkpt>
      <trkpt lat="44.25206" lon="6.24191">
        <ele>1351.27</ele>
        <time>2016-02-15T15:16:10Z</time>
      </trkpt>
      <trkpt lat="44.25205" lon="6.2419">
        <ele>1349.35</ele>
        <time>2016-02-15T15:16:16Z</time>
      </trkpt>
      <trkpt lat="44.2521" lon="6.24196">
        <ele>1349.35</ele>
        <time>2016-02-15T15:16:32Z</time>
      </trkpt>
      <trkpt lat="44.25212" lon="6.24196">
        <ele>1347.91</ele>
        <time>2016-02-15T15:16:35Z</time>
      </trkpt>
      <trkpt lat="44.25219" lon="6.24197">
        <ele>1346.46</ele>
        <time>2016-02-15T15:16:42Z</time>
      </trkpt>
      <trkpt lat="44.25234" lon="6.24206">
        <ele>1343.1</ele>
        <time>2016-02-15T15:16:59Z</time>
      </trkpt>
      <trkpt lat="44.25246" lon="6.24219">
        <ele>1341.18</ele>
        <time>2016-02-15T15:17:14Z</time>
      </trkpt>
      <trkpt lat="44.25258" lon="6.24231">
        <ele>1339.73</ele>
        <time>2016-02-15T15:17:28Z</time>
      </trkpt>
      <trkpt lat="44.25269" lon="6.24243">
        <ele>1336.37</ele>
        <time>2016-02-15T15:17:43Z</time>
      </trkpt>
      <trkpt lat="44.25278" lon="6.24251">
        <ele>1335.41</ele>
        <time>2016-02-15T15:17:54Z</time>
      </trkpt>
      <trkpt lat="44.25291" lon="6.2426">
        <ele>1331.08</ele>
        <time>2016-02-15T15:18:10Z</time>
      </trkpt>
      <trkpt lat="44.25299" lon="6.24265">
        <ele>1329.64</ele>
        <time>2016-02-15T15:18:19Z</time>
      </trkpt>
      <trkpt lat="44.25306" lon="6.24264">
        <ele>1327.72</ele>
        <time>2016-02-15T15:18:25Z</time>
      </trkpt>
      <trkpt lat="44.25312" lon="6.24263">
        <ele>1325.8</ele>
        <time>2016-02-15T15:18:31Z</time>
      </trkpt>
      <trkpt lat="44.25326" lon="6.24264">
        <ele>1323.39</ele>
        <time>2016-02-15T15:18:45Z</time>
      </trkpt>
      <trkpt lat="44.25333" lon="6.2427">
        <ele>1320.99</ele>
        <time>2016-02-15T15:18:54Z</time>
      </trkpt>
      <trkpt lat="44.25343" lon="6.24284">
        <ele>1317.62</ele>
        <time>2016-02-15T15:19:10Z</time>
      </trkpt>
      <trkpt lat="44.25349" lon="6.24291">
        <ele>1314.74</ele>
        <time>2016-02-15T15:19:19Z</time>
      </trkpt>
      <trkpt lat="44.2536" lon="6.24299">
        <ele>1312.34</ele>
        <time>2016-02-15T15:19:35Z</time>
      </trkpt>
      <trkpt lat="44.2537" lon="6.24302">
        <ele>1309.45</ele>
        <time>2016-02-15T15:19:50Z</time>
      </trkpt>
      <trkpt lat="44.25382" lon="6.24303">
        <ele>1306.57</ele>
        <time>2016-02-15T15:20:03Z</time>
      </trkpt>
      <trkpt lat="44.25394" lon="6.24315">
        <ele>1305.61</ele>
        <time>2016-02-15T15:20:19Z</time>
      </trkpt>
      <trkpt lat="44.25403" lon="6.24324">
        <ele>1305.13</ele>
        <time>2016-02-15T15:20:29Z</time>
      </trkpt>
      <trkpt lat="44.25417" lon="6.24325">
        <ele>1304.65</ele>
        <time>2016-02-15T15:20:45Z</time>
      </trkpt>
      <trkpt lat="44.25431" lon="6.24328">
        <ele>1303.69</ele>
        <time>2016-02-15T15:21:01Z</time>
      </trkpt>
      <trkpt lat="44.25445" lon="6.24313">
        <ele>1302.24</ele>
        <time>2016-02-15T15:21:19Z</time>
      </trkpt>
      <trkpt lat="44.25458" lon="6.2431">
        <ele>1301.76</ele>
        <time>2016-02-15T15:21:34Z</time>
      </trkpt>
      <trkpt lat="44.25462" lon="6.24325">
        <ele>1301.76</ele>
        <time>2016-02-15T15:21:48Z</time>
      </trkpt>
      <trkpt lat="44.25459" lon="6.24343">
        <ele>1302.24</ele>
        <time>2016-02-15T15:22:02Z</time>
      </trkpt>
      <trkpt lat="44.2546" lon="6.24358">
        <ele>1301.76</ele>
        <time>2016-02-15T15:22:12Z</time>
      </trkpt>
      <trkpt lat="44.25468" lon="6.24377">
        <ele>1301.28</ele>
        <time>2016-02-15T15:22:29Z</time>
      </trkpt>
      <trkpt lat="44.25472" lon="6.24394">
        <ele>1301.28</ele>
        <time>2016-02-15T15:22:44Z</time>
      </trkpt>
      <trkpt lat="44.25476" lon="6.24403">
        <ele>1302.24</ele>
        <time>2016-02-15T15:22:57Z</time>
      </trkpt>
      <trkpt lat="44.25479" lon="6.24418">
        <ele>1304.17</ele>
        <time>2016-02-15T15:23:14Z</time>
      </trkpt>
      <trkpt lat="44.25477" lon="6.24441">
        <ele>1302.72</ele>
        <time>2016-02-15T15:23:31Z</time>
      </trkpt>
      <trkpt lat="44.25472" lon="6.24464">
        <ele>1301.76</ele>
        <time>2016-02-15T15:23:51Z</time>
      </trkpt>
      <trkpt lat="44.25467" lon="6.24484">
        <ele>1301.76</ele>
        <time>2016-02-15T15:24:06Z</time>
      </trkpt>
      <trkpt lat="44.25472" lon="6.24502">
        <ele>1300.8</ele>
        <time>2016-02-15T15:24:21Z</time>
      </trkpt>
      <trkpt lat="44.25478" lon="6.24516">
        <ele>1299.84</ele>
        <time>2016-02-15T15:24:32Z</time>
      </trkpt>
      <trkpt lat="44.2548" lon="6.24536">
        <ele>1298.4</ele>
        <time>2016-02-15T15:24:48Z</time>
      </trkpt>
      <trkpt lat="44.2548" lon="6.24554">
        <ele>1298.4</ele>
        <time>2016-02-15T15:25:01Z</time>
      </trkpt>
      <trkpt lat="44.2548" lon="6.24561">
        <ele>1298.4</ele>
        <time>2016-02-15T15:25:06Z</time>
      </trkpt>
      <trkpt lat="44.25482" lon="6.24583">
        <ele>1297.92</ele>
        <time>2016-02-15T15:25:22Z</time>
      </trkpt>
      <trkpt lat="44.25485" lon="6.24603">
        <ele>1295.99</ele>
        <time>2016-02-15T15:25:38Z</time>
      </trkpt>
      <trkpt lat="44.25487" lon="6.2462">
        <ele>1293.11</ele>
        <time>2016-02-15T15:25:55Z</time>
      </trkpt>
      <trkpt lat="44.25488" lon="6.24635">
        <ele>1291.19</ele>
        <time>2016-02-15T15:26:08Z</time>
      </trkpt>
      <trkpt lat="44.25489" lon="6.24657">
        <ele>1288.78</ele>
        <time>2016-02-15T15:26:25Z</time>
      </trkpt>
      <trkpt lat="44.25489" lon="6.24676">
        <ele>1286.38</ele>
        <time>2016-02-15T15:26:41Z</time>
      </trkpt>
      <trkpt lat="44.25488" lon="6.24676">
        <ele>1287.34</ele>
        <time>2016-02-15T15:26:59Z</time>
      </trkpt>
      <trkpt lat="44.25489" lon="6.24686">
        <ele>1285.9</ele>
        <time>2016-02-15T15:27:24Z</time>
      </trkpt>
      <trkpt lat="44.25493" lon="6.24704">
        <ele>1283.98</ele>
        <time>2016-02-15T15:27:39Z</time>
      </trkpt>
      <trkpt lat="44.25494" lon="6.24721">
        <ele>1282.54</ele>
        <time>2016-02-15T15:27:51Z</time>
      </trkpt>
      <trkpt lat="44.25499" lon="6.24742">
        <ele>1282.06</ele>
        <time>2016-02-15T15:28:08Z</time>
      </trkpt>
      <trkpt lat="44.25504" lon="6.24752">
        <ele>1281.09</ele>
        <time>2016-02-15T15:28:16Z</time>
      </trkpt>
      <trkpt lat="44.2551" lon="6.24769">
        <ele>1281.09</ele>
        <time>2016-02-15T15:28:31Z</time>
      </trkpt>
      <trkpt lat="44.25514" lon="6.24779">
        <ele>1281.09</ele>
        <time>2016-02-15T15:28:38Z</time>
      </trkpt>
      <trkpt lat="44.25517" lon="6.24785">
        <ele>1280.61</ele>
        <time>2016-02-15T15:28:42Z</time>
      </trkpt>
      <trkpt lat="44.25521" lon="6.2481">
        <ele>1278.69</ele>
        <time>2016-02-15T15:29:00Z</time>
      </trkpt>
      <trkpt lat="44.25524" lon="6.2482">
        <ele>1277.73</ele>
        <time>2016-02-15T15:29:17Z</time>
      </trkpt>
      <trkpt lat="44.25523" lon="6.24821">
        <ele>1277.73</ele>
        <time>2016-02-15T15:29:36Z</time>
      </trkpt>
      <trkpt lat="44.25523" lon="6.24822">
        <ele>1278.21</ele>
        <time>2016-02-15T15:30:03Z</time>
      </trkpt>
      <trkpt lat="44.25525" lon="6.24824">
        <ele>1277.73</ele>
        <time>2016-02-15T15:30:36Z</time>
      </trkpt>
      <trkpt lat="44.25525" lon="6.24819">
        <ele>1277.25</ele>
        <time>2016-02-15T15:31:10Z</time>
      </trkpt>
      <trkpt lat="44.25528" lon="6.24827">
        <ele>1276.77</ele>
        <time>2016-02-15T15:31:31Z</time>
      </trkpt>
      <trkpt lat="44.25529" lon="6.24829">
        <ele>1276.77</ele>
        <time>2016-02-15T15:31:32Z</time>
      </trkpt>
      <trkpt lat="44.25541" lon="6.24854">
        <ele>1275.81</ele>
        <time>2016-02-15T15:31:52Z</time>
      </trkpt>
      <trkpt lat="44.25551" lon="6.2488">
        <ele>1274.85</ele>
        <time>2016-02-15T15:32:11Z</time>
      </trkpt>
      <trkpt lat="44.25559" lon="6.24908">
        <ele>1274.36</ele>
        <time>2016-02-15T15:32:31Z</time>
      </trkpt>
      <trkpt lat="44.25565" lon="6.24924">
        <ele>1271.48</ele>
        <time>2016-02-15T15:32:46Z</time>
      </trkpt>
      <trkpt lat="44.25569" lon="6.24931">
        <ele>1270.52</ele>
        <time>2016-02-15T15:32:52Z</time>
      </trkpt>
      <trkpt lat="44.25579" lon="6.24944">
        <ele>1268.6</ele>
        <time>2016-02-15T15:33:04Z</time>
      </trkpt>
      <trkpt lat="44.25591" lon="6.24963">
        <ele>1266.19</ele>
        <time>2016-02-15T15:33:22Z</time>
      </trkpt>
      <trkpt lat="44.25604" lon="6.2498">
        <ele>1263.31</ele>
        <time>2016-02-15T15:33:40Z</time>
      </trkpt>
      <trkpt lat="44.25614" lon="6.24993">
        <ele>1260.43</ele>
        <time>2016-02-15T15:33:54Z</time>
      </trkpt>
      <trkpt lat="44.25621" lon="6.25">
        <ele>1258.5</ele>
        <time>2016-02-15T15:34:03Z</time>
      </trkpt>
      <trkpt lat="44.25632" lon="6.25012">
        <ele>1255.62</ele>
        <time>2016-02-15T15:34:15Z</time>
      </trkpt>
      <trkpt lat="44.25637" lon="6.25014">
        <ele>1254.66</ele>
        <time>2016-02-15T15:34:20Z</time>
      </trkpt>
      <trkpt lat="44.25654" lon="6.25012">
        <ele>1252.74</ele>
        <time>2016-02-15T15:34:38Z</time>
      </trkpt>
      <trkpt lat="44.25666" lon="6.25003">
        <ele>1249.37</ele>
        <time>2016-02-15T15:34:51Z</time>
      </trkpt>
      <trkpt lat="44.25684" lon="6.25">
        <ele>1247.45</ele>
        <time>2016-02-15T15:35:07Z</time>
      </trkpt>
      <trkpt lat="44.25701" lon="6.25009">
        <ele>1244.56</ele>
        <time>2016-02-15T15:35:23Z</time>
      </trkpt>
      <trkpt lat="44.25711" lon="6.25025">
        <ele>1242.64</ele>
        <time>2016-02-15T15:35:39Z</time>
      </trkpt>
      <trkpt lat="44.25722" lon="6.25034">
        <ele>1239.76</ele>
        <time>2016-02-15T15:35:52Z</time>
      </trkpt>
      <trkpt lat="44.25726" lon="6.25041">
        <ele>1238.32</ele>
        <time>2016-02-15T15:35:59Z</time>
      </trkpt>
      <trkpt lat="44.25736" lon="6.2506">
        <ele>1234.95</ele>
        <time>2016-02-15T15:36:16Z</time>
      </trkpt>
      <trkpt lat="44.25742" lon="6.25078">
        <ele>1231.59</ele>
        <time>2016-02-15T15:36:30Z</time>
      </trkpt>
      <trkpt lat="44.25748" lon="6.25095">
        <ele>1228.7</ele>
        <time>2016-02-15T15:36:43Z</time>
      </trkpt>
      <trkpt lat="44.25759" lon="6.25119">
        <ele>1225.82</ele>
        <time>2016-02-15T15:37:03Z</time>
      </trkpt>
      <trkpt lat="44.25763" lon="6.25134">
        <ele>1224.38</ele>
        <time>2016-02-15T15:37:18Z</time>
      </trkpt>
      <trkpt lat="44.25764" lon="6.25134">
        <ele>1223.42</ele>
        <time>2016-02-15T15:37:36Z</time>
      </trkpt>
      <trkpt lat="44.25763" lon="6.25136">
        <ele>1223.42</ele>
        <time>2016-02-15T15:37:57Z</time>
      </trkpt>
      <trkpt lat="44.25761" lon="6.25135">
        <ele>1222.45</ele>
        <time>2016-02-15T15:38:04Z</time>
      </trkpt>
    </trkseg>
  </trk>
</gpx>